<?xml version="1.0" encoding="UTF-8" standalone="no" ?>
<gpx xmlns="http://www.topografix.com/GPX/1/1" xmlns:xsi="http://www.w3.org/2001/XMLSchema-instance" xsi:schemaLocation="http://www.topografix.com/GPX/1/1 http://www.topografix.com/GPX/1/1/gpx.xsd" version="1.1" creator="VisuGPX - https://www.visugpx.com">
  <metadata>
    <name>2021-01-10 le Tanet</name>
    <desc><![CDATA[File with points/tracks from Locus Map/3.49.1]]></desc>
  </metadata>
  <trk>
    <name><![CDATA[2021-01-10 le Tanet (ski de rando)]]></name>
    <extensions>
      <line xmlns="http://www.topografix.com/GPX/gpx_style/0/2">
        <color>0000FF</color>
        <opacity>0.59</opacity>
        <width>6.0</width>
      </line>
    </extensions>
    <trkseg>
      <trkpt lat="48.08326" lon="7.06029">
        <ele>1001.68</ele>
        <time>2021-01-10T07:50:54.000Z</time>
      </trkpt>
      <trkpt lat="48.08335" lon="7.06027">
        <ele>1004.74</ele>
        <time>2021-01-10T07:51:01.000Z</time>
      </trkpt>
      <trkpt lat="48.08344" lon="7.06025">
        <ele>1014.27</ele>
        <time>2021-01-10T07:52:20.000Z</time>
      </trkpt>
      <trkpt lat="48.08345" lon="7.06011">
        <ele>1014.29</ele>
        <time>2021-01-10T07:52:30.000Z</time>
      </trkpt>
      <trkpt lat="48.08348" lon="7.05998">
        <ele>1014.82</ele>
        <time>2021-01-10T07:52:41.000Z</time>
      </trkpt>
      <trkpt lat="48.08349" lon="7.05984">
        <ele>1014.99</ele>
        <time>2021-01-10T07:52:50.000Z</time>
      </trkpt>
      <trkpt lat="48.08352" lon="7.0597">
        <ele>1014.84</ele>
        <time>2021-01-10T07:53:01.000Z</time>
      </trkpt>
      <trkpt lat="48.08356" lon="7.05957">
        <ele>1014.35</ele>
        <time>2021-01-10T07:53:13.000Z</time>
      </trkpt>
      <trkpt lat="48.08356" lon="7.05943">
        <ele>1014.04</ele>
        <time>2021-01-10T07:53:22.000Z</time>
      </trkpt>
      <trkpt lat="48.08353" lon="7.05929">
        <ele>1013.74</ele>
        <time>2021-01-10T07:53:31.000Z</time>
      </trkpt>
      <trkpt lat="48.0835" lon="7.05915">
        <ele>1013.62</ele>
        <time>2021-01-10T07:53:42.000Z</time>
      </trkpt>
      <trkpt lat="48.08347" lon="7.05901">
        <ele>1013.81</ele>
        <time>2021-01-10T07:53:53.000Z</time>
      </trkpt>
      <trkpt lat="48.08345" lon="7.05888">
        <ele>1013.66</ele>
        <time>2021-01-10T07:54:04.000Z</time>
      </trkpt>
      <trkpt lat="48.08341" lon="7.05876">
        <ele>1013.77</ele>
        <time>2021-01-10T07:54:17.000Z</time>
      </trkpt>
      <trkpt lat="48.08338" lon="7.05863">
        <ele>1013.84</ele>
        <time>2021-01-10T07:54:29.000Z</time>
      </trkpt>
      <trkpt lat="48.08332" lon="7.05851">
        <ele>1013.7</ele>
        <time>2021-01-10T07:54:42.000Z</time>
      </trkpt>
      <trkpt lat="48.08324" lon="7.05846">
        <ele>1014.12</ele>
        <time>2021-01-10T07:54:53.000Z</time>
      </trkpt>
      <trkpt lat="48.08315" lon="7.05841">
        <ele>1015.46</ele>
        <time>2021-01-10T07:55:04.000Z</time>
      </trkpt>
      <trkpt lat="48.08306" lon="7.05838">
        <ele>1015.76</ele>
        <time>2021-01-10T07:55:16.000Z</time>
      </trkpt>
      <trkpt lat="48.08297" lon="7.05835">
        <ele>1016.57</ele>
        <time>2021-01-10T07:55:27.000Z</time>
      </trkpt>
      <trkpt lat="48.08288" lon="7.0583">
        <ele>1019.04</ele>
        <time>2021-01-10T07:55:39.000Z</time>
      </trkpt>
      <trkpt lat="48.08279" lon="7.05825">
        <ele>1020.79</ele>
        <time>2021-01-10T07:55:55.000Z</time>
      </trkpt>
      <trkpt lat="48.0827" lon="7.05827">
        <ele>1021.88</ele>
        <time>2021-01-10T07:56:04.000Z</time>
      </trkpt>
      <trkpt lat="48.0826" lon="7.05825">
        <ele>1023.5</ele>
        <time>2021-01-10T07:56:16.000Z</time>
      </trkpt>
      <trkpt lat="48.0825" lon="7.05823">
        <ele>1026.43</ele>
        <time>2021-01-10T07:56:27.000Z</time>
      </trkpt>
      <trkpt lat="48.08241" lon="7.05821">
        <ele>1030.67</ele>
        <time>2021-01-10T07:56:39.000Z</time>
      </trkpt>
      <trkpt lat="48.08232" lon="7.05825">
        <ele>1037.04</ele>
        <time>2021-01-10T07:56:53.000Z</time>
      </trkpt>
      <trkpt lat="48.08223" lon="7.0583">
        <ele>1041.37</ele>
        <time>2021-01-10T07:57:03.000Z</time>
      </trkpt>
      <trkpt lat="48.08214" lon="7.05833">
        <ele>1043.98</ele>
        <time>2021-01-10T07:57:16.000Z</time>
      </trkpt>
      <trkpt lat="48.08205" lon="7.05839">
        <ele>1045.04</ele>
        <time>2021-01-10T07:57:28.000Z</time>
      </trkpt>
      <trkpt lat="48.08196" lon="7.05842">
        <ele>1042.8</ele>
        <time>2021-01-10T07:57:51.000Z</time>
      </trkpt>
      <trkpt lat="48.08187" lon="7.05844">
        <ele>1040.76</ele>
        <time>2021-01-10T07:58:03.000Z</time>
      </trkpt>
      <trkpt lat="48.08178" lon="7.05845">
        <ele>1039.96</ele>
        <time>2021-01-10T07:58:13.000Z</time>
      </trkpt>
      <trkpt lat="48.08169" lon="7.0584">
        <ele>1038.62</ele>
        <time>2021-01-10T07:58:24.000Z</time>
      </trkpt>
      <trkpt lat="48.08161" lon="7.05836">
        <ele>1038.33</ele>
        <time>2021-01-10T07:58:38.000Z</time>
      </trkpt>
      <trkpt lat="48.08153" lon="7.05829">
        <ele>1038.41</ele>
        <time>2021-01-10T07:58:50.000Z</time>
      </trkpt>
      <trkpt lat="48.08145" lon="7.05822">
        <ele>1039.08</ele>
        <time>2021-01-10T07:59:04.000Z</time>
      </trkpt>
      <trkpt lat="48.08138" lon="7.05812">
        <ele>1039.01</ele>
        <time>2021-01-10T07:59:16.000Z</time>
      </trkpt>
      <trkpt lat="48.0813" lon="7.05803">
        <ele>1039.57</ele>
        <time>2021-01-10T07:59:30.000Z</time>
      </trkpt>
      <trkpt lat="48.08122" lon="7.05795">
        <ele>1039.81</ele>
        <time>2021-01-10T07:59:48.000Z</time>
      </trkpt>
      <trkpt lat="48.08115" lon="7.05787">
        <ele>1041.67</ele>
        <time>2021-01-10T08:00:08.000Z</time>
      </trkpt>
      <trkpt lat="48.08105" lon="7.0578">
        <ele>1044.13</ele>
        <time>2021-01-10T08:00:32.000Z</time>
      </trkpt>
      <trkpt lat="48.08096" lon="7.05777">
        <ele>1044.97</ele>
        <time>2021-01-10T08:00:42.000Z</time>
      </trkpt>
      <trkpt lat="48.08086" lon="7.05778">
        <ele>1048.71</ele>
        <time>2021-01-10T08:00:52.000Z</time>
      </trkpt>
      <trkpt lat="48.08077" lon="7.05783">
        <ele>1054.97</ele>
        <time>2021-01-10T08:01:04.000Z</time>
      </trkpt>
      <trkpt lat="48.08068" lon="7.05791">
        <ele>1062.7</ele>
        <time>2021-01-10T08:01:16.000Z</time>
      </trkpt>
      <trkpt lat="48.08064" lon="7.05802">
        <ele>1067.88</ele>
        <time>2021-01-10T08:01:27.000Z</time>
      </trkpt>
      <trkpt lat="48.08063" lon="7.05816">
        <ele>1073.7</ele>
        <time>2021-01-10T08:01:43.000Z</time>
      </trkpt>
      <trkpt lat="48.0806" lon="7.05829">
        <ele>1077.44</ele>
        <time>2021-01-10T08:01:59.000Z</time>
      </trkpt>
      <trkpt lat="48.08054" lon="7.05841">
        <ele>1079.27</ele>
        <time>2021-01-10T08:02:12.000Z</time>
      </trkpt>
      <trkpt lat="48.08046" lon="7.05846">
        <ele>1081.45</ele>
        <time>2021-01-10T08:02:27.000Z</time>
      </trkpt>
      <trkpt lat="48.08038" lon="7.05838">
        <ele>1082.94</ele>
        <time>2021-01-10T08:02:38.000Z</time>
      </trkpt>
      <trkpt lat="48.08031" lon="7.05828">
        <ele>1084.37</ele>
        <time>2021-01-10T08:02:49.000Z</time>
      </trkpt>
      <trkpt lat="48.08022" lon="7.05825">
        <ele>1080.2</ele>
        <time>2021-01-10T08:03:09.000Z</time>
      </trkpt>
      <trkpt lat="48.08012" lon="7.05824">
        <ele>1081.57</ele>
        <time>2021-01-10T08:03:17.000Z</time>
      </trkpt>
      <trkpt lat="48.08002" lon="7.05826">
        <ele>1081.98</ele>
        <time>2021-01-10T08:03:24.000Z</time>
      </trkpt>
      <trkpt lat="48.07994" lon="7.0582">
        <ele>1080.31</ele>
        <time>2021-01-10T08:04:02.000Z</time>
      </trkpt>
      <trkpt lat="48.07985" lon="7.0582">
        <ele>1079.93</ele>
        <time>2021-01-10T08:04:13.000Z</time>
      </trkpt>
      <trkpt lat="48.07976" lon="7.05815">
        <ele>1079.23</ele>
        <time>2021-01-10T08:04:23.000Z</time>
      </trkpt>
      <trkpt lat="48.07967" lon="7.05811">
        <ele>1078.73</ele>
        <time>2021-01-10T08:04:40.000Z</time>
      </trkpt>
      <trkpt lat="48.07962" lon="7.05799">
        <ele>1077.62</ele>
        <time>2021-01-10T08:04:57.000Z</time>
      </trkpt>
      <trkpt lat="48.07955" lon="7.05789">
        <ele>1077.31</ele>
        <time>2021-01-10T08:05:08.000Z</time>
      </trkpt>
      <trkpt lat="48.07949" lon="7.0578">
        <ele>1076.74</ele>
        <time>2021-01-10T08:05:20.000Z</time>
      </trkpt>
      <trkpt lat="48.07944" lon="7.05766">
        <ele>1076.1</ele>
        <time>2021-01-10T08:05:35.000Z</time>
      </trkpt>
      <trkpt lat="48.07945" lon="7.05745">
        <ele>1074.92</ele>
        <time>2021-01-10T08:05:44.000Z</time>
      </trkpt>
      <trkpt lat="48.07938" lon="7.05737">
        <ele>1075.27</ele>
        <time>2021-01-10T08:06:01.000Z</time>
      </trkpt>
      <trkpt lat="48.07932" lon="7.05726">
        <ele>1076.27</ele>
        <time>2021-01-10T08:06:11.000Z</time>
      </trkpt>
      <trkpt lat="48.07927" lon="7.05713">
        <ele>1080.62</ele>
        <time>2021-01-10T08:06:22.000Z</time>
      </trkpt>
      <trkpt lat="48.07927" lon="7.05699">
        <ele>1083.92</ele>
        <time>2021-01-10T08:06:32.000Z</time>
      </trkpt>
      <trkpt lat="48.07926" lon="7.05685">
        <ele>1087.56</ele>
        <time>2021-01-10T08:06:44.000Z</time>
      </trkpt>
      <trkpt lat="48.07924" lon="7.05671">
        <ele>1089.26</ele>
        <time>2021-01-10T08:06:53.000Z</time>
      </trkpt>
      <trkpt lat="48.07921" lon="7.05658">
        <ele>1090.74</ele>
        <time>2021-01-10T08:07:04.000Z</time>
      </trkpt>
      <trkpt lat="48.07916" lon="7.05646">
        <ele>1092.88</ele>
        <time>2021-01-10T08:07:19.000Z</time>
      </trkpt>
      <trkpt lat="48.07912" lon="7.05633">
        <ele>1092.79</ele>
        <time>2021-01-10T08:07:32.000Z</time>
      </trkpt>
      <trkpt lat="48.0791" lon="7.05619">
        <ele>1092.41</ele>
        <time>2021-01-10T08:07:44.000Z</time>
      </trkpt>
      <trkpt lat="48.07906" lon="7.05606">
        <ele>1092.13</ele>
        <time>2021-01-10T08:07:54.000Z</time>
      </trkpt>
      <trkpt lat="48.07902" lon="7.05593">
        <ele>1092.17</ele>
        <time>2021-01-10T08:08:06.000Z</time>
      </trkpt>
      <trkpt lat="48.07897" lon="7.05581">
        <ele>1092.99</ele>
        <time>2021-01-10T08:08:18.000Z</time>
      </trkpt>
      <trkpt lat="48.07895" lon="7.05567">
        <ele>1093.98</ele>
        <time>2021-01-10T08:08:30.000Z</time>
      </trkpt>
      <trkpt lat="48.07891" lon="7.05555">
        <ele>1094.78</ele>
        <time>2021-01-10T08:08:43.000Z</time>
      </trkpt>
      <trkpt lat="48.0789" lon="7.05541">
        <ele>1095.28</ele>
        <time>2021-01-10T08:08:55.000Z</time>
      </trkpt>
      <trkpt lat="48.07889" lon="7.05527">
        <ele>1097.73</ele>
        <time>2021-01-10T08:09:20.000Z</time>
      </trkpt>
      <trkpt lat="48.07884" lon="7.05515">
        <ele>1098.3</ele>
        <time>2021-01-10T08:09:40.000Z</time>
      </trkpt>
      <trkpt lat="48.07881" lon="7.05502">
        <ele>1098.41</ele>
        <time>2021-01-10T08:09:54.000Z</time>
      </trkpt>
      <trkpt lat="48.07877" lon="7.0549">
        <ele>1098.81</ele>
        <time>2021-01-10T08:10:07.000Z</time>
      </trkpt>
      <trkpt lat="48.07872" lon="7.05477">
        <ele>1098.91</ele>
        <time>2021-01-10T08:10:18.000Z</time>
      </trkpt>
      <trkpt lat="48.07868" lon="7.05465">
        <ele>1098.9</ele>
        <time>2021-01-10T08:10:28.000Z</time>
      </trkpt>
      <trkpt lat="48.07863" lon="7.05452">
        <ele>1098.43</ele>
        <time>2021-01-10T08:10:39.000Z</time>
      </trkpt>
      <trkpt lat="48.07858" lon="7.0544">
        <ele>1098.41</ele>
        <time>2021-01-10T08:10:52.000Z</time>
      </trkpt>
      <trkpt lat="48.07855" lon="7.05426">
        <ele>1099.53</ele>
        <time>2021-01-10T08:11:06.000Z</time>
      </trkpt>
      <trkpt lat="48.07853" lon="7.05412">
        <ele>1098.82</ele>
        <time>2021-01-10T08:11:22.000Z</time>
      </trkpt>
      <trkpt lat="48.07849" lon="7.054">
        <ele>1098.9</ele>
        <time>2021-01-10T08:11:35.000Z</time>
      </trkpt>
      <trkpt lat="48.07846" lon="7.05387">
        <ele>1099.78</ele>
        <time>2021-01-10T08:11:47.000Z</time>
      </trkpt>
      <trkpt lat="48.07843" lon="7.05373">
        <ele>1101.04</ele>
        <time>2021-01-10T08:11:57.000Z</time>
      </trkpt>
      <trkpt lat="48.07842" lon="7.0536">
        <ele>1102</ele>
        <time>2021-01-10T08:12:09.000Z</time>
      </trkpt>
      <trkpt lat="48.07841" lon="7.05346">
        <ele>1102.28</ele>
        <time>2021-01-10T08:12:21.000Z</time>
      </trkpt>
      <trkpt lat="48.07839" lon="7.05332">
        <ele>1103.37</ele>
        <time>2021-01-10T08:12:32.000Z</time>
      </trkpt>
      <trkpt lat="48.07839" lon="7.05318">
        <ele>1104.37</ele>
        <time>2021-01-10T08:12:41.000Z</time>
      </trkpt>
      <trkpt lat="48.0784" lon="7.05303">
        <ele>1105.28</ele>
        <time>2021-01-10T08:12:52.000Z</time>
      </trkpt>
      <trkpt lat="48.07841" lon="7.05289">
        <ele>1107.05</ele>
        <time>2021-01-10T08:13:06.000Z</time>
      </trkpt>
      <trkpt lat="48.07841" lon="7.05275">
        <ele>1107.58</ele>
        <time>2021-01-10T08:13:17.000Z</time>
      </trkpt>
      <trkpt lat="48.07842" lon="7.05262">
        <ele>1108.75</ele>
        <time>2021-01-10T08:13:31.000Z</time>
      </trkpt>
      <trkpt lat="48.07845" lon="7.05249">
        <ele>1110.93</ele>
        <time>2021-01-10T08:13:45.000Z</time>
      </trkpt>
      <trkpt lat="48.07844" lon="7.05235">
        <ele>1111.28</ele>
        <time>2021-01-10T08:13:58.000Z</time>
      </trkpt>
      <trkpt lat="48.07845" lon="7.05221">
        <ele>1111.01</ele>
        <time>2021-01-10T08:14:09.000Z</time>
      </trkpt>
      <trkpt lat="48.07844" lon="7.05208">
        <ele>1111.97</ele>
        <time>2021-01-10T08:14:21.000Z</time>
      </trkpt>
      <trkpt lat="48.07845" lon="7.05193">
        <ele>1113.82</ele>
        <time>2021-01-10T08:14:31.000Z</time>
      </trkpt>
      <trkpt lat="48.07846" lon="7.05179">
        <ele>1115.69</ele>
        <time>2021-01-10T08:14:43.000Z</time>
      </trkpt>
      <trkpt lat="48.07847" lon="7.05165">
        <ele>1116.31</ele>
        <time>2021-01-10T08:14:51.000Z</time>
      </trkpt>
      <trkpt lat="48.07849" lon="7.05152">
        <ele>1117.28</ele>
        <time>2021-01-10T08:15:01.000Z</time>
      </trkpt>
      <trkpt lat="48.07851" lon="7.05139">
        <ele>1117.8</ele>
        <time>2021-01-10T08:15:14.000Z</time>
      </trkpt>
      <trkpt lat="48.07855" lon="7.05125">
        <ele>1118</ele>
        <time>2021-01-10T08:15:25.000Z</time>
      </trkpt>
      <trkpt lat="48.07858" lon="7.05112">
        <ele>1118.33</ele>
        <time>2021-01-10T08:15:39.000Z</time>
      </trkpt>
      <trkpt lat="48.07855" lon="7.05099">
        <ele>1118.63</ele>
        <time>2021-01-10T08:15:52.000Z</time>
      </trkpt>
      <trkpt lat="48.07849" lon="7.05088">
        <ele>1119.3</ele>
        <time>2021-01-10T08:16:04.000Z</time>
      </trkpt>
      <trkpt lat="48.07842" lon="7.05079">
        <ele>1119.5</ele>
        <time>2021-01-10T08:16:17.000Z</time>
      </trkpt>
      <trkpt lat="48.07834" lon="7.0507">
        <ele>1120.27</ele>
        <time>2021-01-10T08:16:28.000Z</time>
      </trkpt>
      <trkpt lat="48.07829" lon="7.05057">
        <ele>1119.51</ele>
        <time>2021-01-10T08:16:42.000Z</time>
      </trkpt>
      <trkpt lat="48.07822" lon="7.05047">
        <ele>1118.63</ele>
        <time>2021-01-10T08:16:54.000Z</time>
      </trkpt>
      <trkpt lat="48.07816" lon="7.05036">
        <ele>1117.44</ele>
        <time>2021-01-10T08:17:07.000Z</time>
      </trkpt>
      <trkpt lat="48.07812" lon="7.05023">
        <ele>1116.33</ele>
        <time>2021-01-10T08:17:19.000Z</time>
      </trkpt>
      <trkpt lat="48.07808" lon="7.0501">
        <ele>1115.14</ele>
        <time>2021-01-10T08:17:32.000Z</time>
      </trkpt>
      <trkpt lat="48.07807" lon="7.04996">
        <ele>1113.45</ele>
        <time>2021-01-10T08:17:45.000Z</time>
      </trkpt>
      <trkpt lat="48.07804" lon="7.04983">
        <ele>1111.94</ele>
        <time>2021-01-10T08:17:56.000Z</time>
      </trkpt>
      <trkpt lat="48.07802" lon="7.04969">
        <ele>1111.18</ele>
        <time>2021-01-10T08:18:05.000Z</time>
      </trkpt>
      <trkpt lat="48.078" lon="7.04955">
        <ele>1111.41</ele>
        <time>2021-01-10T08:18:16.000Z</time>
      </trkpt>
      <trkpt lat="48.07796" lon="7.04942">
        <ele>1111.41</ele>
        <time>2021-01-10T08:18:25.000Z</time>
      </trkpt>
      <trkpt lat="48.07795" lon="7.04928">
        <ele>1111.21</ele>
        <time>2021-01-10T08:18:36.000Z</time>
      </trkpt>
      <trkpt lat="48.07795" lon="7.04913">
        <ele>1110.61</ele>
        <time>2021-01-10T08:18:48.000Z</time>
      </trkpt>
      <trkpt lat="48.07795" lon="7.04899">
        <ele>1108.97</ele>
        <time>2021-01-10T08:19:03.000Z</time>
      </trkpt>
      <trkpt lat="48.07796" lon="7.04885">
        <ele>1107.81</ele>
        <time>2021-01-10T08:19:15.000Z</time>
      </trkpt>
      <trkpt lat="48.07795" lon="7.04872">
        <ele>1107.22</ele>
        <time>2021-01-10T08:19:26.000Z</time>
      </trkpt>
      <trkpt lat="48.07795" lon="7.04858">
        <ele>1106.33</ele>
        <time>2021-01-10T08:19:38.000Z</time>
      </trkpt>
      <trkpt lat="48.07795" lon="7.04843">
        <ele>1105.73</ele>
        <time>2021-01-10T08:19:50.000Z</time>
      </trkpt>
      <trkpt lat="48.07792" lon="7.0483">
        <ele>1106.38</ele>
        <time>2021-01-10T08:20:01.000Z</time>
      </trkpt>
      <trkpt lat="48.07794" lon="7.04816">
        <ele>1106.33</ele>
        <time>2021-01-10T08:20:11.000Z</time>
      </trkpt>
      <trkpt lat="48.07795" lon="7.04803">
        <ele>1106.87</ele>
        <time>2021-01-10T08:20:23.000Z</time>
      </trkpt>
      <trkpt lat="48.07798" lon="7.0479">
        <ele>1107.57</ele>
        <time>2021-01-10T08:20:32.000Z</time>
      </trkpt>
      <trkpt lat="48.07801" lon="7.04774">
        <ele>1108.12</ele>
        <time>2021-01-10T08:20:42.000Z</time>
      </trkpt>
      <trkpt lat="48.07801" lon="7.04761">
        <ele>1108.98</ele>
        <time>2021-01-10T08:20:52.000Z</time>
      </trkpt>
      <trkpt lat="48.07799" lon="7.04746">
        <ele>1112.08</ele>
        <time>2021-01-10T08:21:00.000Z</time>
      </trkpt>
      <trkpt lat="48.078" lon="7.04733">
        <ele>1117.71</ele>
        <time>2021-01-10T08:21:09.000Z</time>
      </trkpt>
      <trkpt lat="48.07803" lon="7.0472">
        <ele>1120.4</ele>
        <time>2021-01-10T08:21:20.000Z</time>
      </trkpt>
      <trkpt lat="48.07805" lon="7.04705">
        <ele>1123.72</ele>
        <time>2021-01-10T08:21:29.000Z</time>
      </trkpt>
      <trkpt lat="48.07806" lon="7.04691">
        <ele>1127.1</ele>
        <time>2021-01-10T08:21:38.000Z</time>
      </trkpt>
      <trkpt lat="48.07807" lon="7.04677">
        <ele>1129.32</ele>
        <time>2021-01-10T08:21:51.000Z</time>
      </trkpt>
      <trkpt lat="48.07809" lon="7.04662">
        <ele>1132.72</ele>
        <time>2021-01-10T08:22:04.000Z</time>
      </trkpt>
      <trkpt lat="48.0781" lon="7.04649">
        <ele>1136.03</ele>
        <time>2021-01-10T08:22:16.000Z</time>
      </trkpt>
      <trkpt lat="48.07809" lon="7.04635">
        <ele>1136.48</ele>
        <time>2021-01-10T08:22:25.000Z</time>
      </trkpt>
      <trkpt lat="48.07813" lon="7.04622">
        <ele>1137.71</ele>
        <time>2021-01-10T08:22:32.000Z</time>
      </trkpt>
      <trkpt lat="48.07804" lon="7.0461">
        <ele>1159.53</ele>
        <time>2021-01-10T08:24:54.000Z</time>
      </trkpt>
      <trkpt lat="48.07804" lon="7.04596">
        <ele>1159.48</ele>
        <time>2021-01-10T08:25:05.000Z</time>
      </trkpt>
      <trkpt lat="48.07804" lon="7.04582">
        <ele>1160.77</ele>
        <time>2021-01-10T08:25:14.000Z</time>
      </trkpt>
      <trkpt lat="48.07805" lon="7.04568">
        <ele>1160.43</ele>
        <time>2021-01-10T08:25:24.000Z</time>
      </trkpt>
      <trkpt lat="48.07801" lon="7.04555">
        <ele>1166.41</ele>
        <time>2021-01-10T08:26:25.000Z</time>
      </trkpt>
      <trkpt lat="48.07805" lon="7.04542">
        <ele>1168.72</ele>
        <time>2021-01-10T08:26:35.000Z</time>
      </trkpt>
      <trkpt lat="48.07809" lon="7.0453">
        <ele>1168.11</ele>
        <time>2021-01-10T08:26:49.000Z</time>
      </trkpt>
      <trkpt lat="48.07815" lon="7.04518">
        <ele>1169.69</ele>
        <time>2021-01-10T08:26:58.000Z</time>
      </trkpt>
      <trkpt lat="48.07822" lon="7.04509">
        <ele>1176.97</ele>
        <time>2021-01-10T08:27:11.000Z</time>
      </trkpt>
      <trkpt lat="48.07822" lon="7.04495">
        <ele>1181.58</ele>
        <time>2021-01-10T08:27:21.000Z</time>
      </trkpt>
      <trkpt lat="48.07821" lon="7.0448">
        <ele>1184.9</ele>
        <time>2021-01-10T08:27:36.000Z</time>
      </trkpt>
      <trkpt lat="48.07827" lon="7.04469">
        <ele>1189.8</ele>
        <time>2021-01-10T08:27:54.000Z</time>
      </trkpt>
      <trkpt lat="48.07833" lon="7.04459">
        <ele>1193.87</ele>
        <time>2021-01-10T08:28:10.000Z</time>
      </trkpt>
      <trkpt lat="48.07837" lon="7.04447">
        <ele>1195.47</ele>
        <time>2021-01-10T08:28:23.000Z</time>
      </trkpt>
      <trkpt lat="48.07845" lon="7.04436">
        <ele>1196.93</ele>
        <time>2021-01-10T08:28:51.000Z</time>
      </trkpt>
      <trkpt lat="48.07844" lon="7.04422">
        <ele>1195.01</ele>
        <time>2021-01-10T08:29:50.000Z</time>
      </trkpt>
      <trkpt lat="48.0785" lon="7.04411">
        <ele>1198.99</ele>
        <time>2021-01-10T08:30:09.000Z</time>
      </trkpt>
      <trkpt lat="48.07851" lon="7.04398">
        <ele>1200.95</ele>
        <time>2021-01-10T08:30:24.000Z</time>
      </trkpt>
      <trkpt lat="48.07851" lon="7.04384">
        <ele>1207.95</ele>
        <time>2021-01-10T08:32:18.000Z</time>
      </trkpt>
      <trkpt lat="48.07849" lon="7.04371">
        <ele>1207.58</ele>
        <time>2021-01-10T08:32:30.000Z</time>
      </trkpt>
      <trkpt lat="48.07854" lon="7.04359">
        <ele>1208.67</ele>
        <time>2021-01-10T08:32:44.000Z</time>
      </trkpt>
      <trkpt lat="48.07862" lon="7.04352">
        <ele>1210.18</ele>
        <time>2021-01-10T08:32:58.000Z</time>
      </trkpt>
      <trkpt lat="48.07864" lon="7.04338">
        <ele>1211.28</ele>
        <time>2021-01-10T08:33:11.000Z</time>
      </trkpt>
      <trkpt lat="48.07869" lon="7.04326">
        <ele>1211.97</ele>
        <time>2021-01-10T08:33:21.000Z</time>
      </trkpt>
      <trkpt lat="48.07877" lon="7.04319">
        <ele>1215.19</ele>
        <time>2021-01-10T08:34:14.000Z</time>
      </trkpt>
      <trkpt lat="48.07887" lon="7.04321">
        <ele>1218.39</ele>
        <time>2021-01-10T08:34:27.000Z</time>
      </trkpt>
      <trkpt lat="48.07895" lon="7.04317">
        <ele>1220.31</ele>
        <time>2021-01-10T08:34:46.000Z</time>
      </trkpt>
      <trkpt lat="48.07904" lon="7.04318">
        <ele>1220.22</ele>
        <time>2021-01-10T08:35:03.000Z</time>
      </trkpt>
      <trkpt lat="48.07913" lon="7.04324">
        <ele>1220.77</ele>
        <time>2021-01-10T08:35:21.000Z</time>
      </trkpt>
      <trkpt lat="48.0792" lon="7.04334">
        <ele>1223.27</ele>
        <time>2021-01-10T08:38:28.000Z</time>
      </trkpt>
      <trkpt lat="48.07927" lon="7.04342">
        <ele>1224.6</ele>
        <time>2021-01-10T08:38:49.000Z</time>
      </trkpt>
      <trkpt lat="48.07935" lon="7.04352">
        <ele>1224.62</ele>
        <time>2021-01-10T08:39:02.000Z</time>
      </trkpt>
      <trkpt lat="48.07941" lon="7.04362">
        <ele>1225.28</ele>
        <time>2021-01-10T08:39:14.000Z</time>
      </trkpt>
      <trkpt lat="48.07942" lon="7.04376">
        <ele>1226.68</ele>
        <time>2021-01-10T08:39:27.000Z</time>
      </trkpt>
      <trkpt lat="48.07943" lon="7.0439">
        <ele>1227.11</ele>
        <time>2021-01-10T08:39:49.000Z</time>
      </trkpt>
      <trkpt lat="48.07948" lon="7.04402">
        <ele>1227.41</ele>
        <time>2021-01-10T08:39:58.000Z</time>
      </trkpt>
      <trkpt lat="48.07951" lon="7.04415">
        <ele>1227.34</ele>
        <time>2021-01-10T08:40:09.000Z</time>
      </trkpt>
      <trkpt lat="48.07953" lon="7.04429">
        <ele>1226.62</ele>
        <time>2021-01-10T08:40:19.000Z</time>
      </trkpt>
      <trkpt lat="48.07954" lon="7.04445">
        <ele>1227.21</ele>
        <time>2021-01-10T08:40:55.000Z</time>
      </trkpt>
      <trkpt lat="48.07957" lon="7.04458">
        <ele>1227.78</ele>
        <time>2021-01-10T08:41:08.000Z</time>
      </trkpt>
      <trkpt lat="48.07959" lon="7.04472">
        <ele>1228.03</ele>
        <time>2021-01-10T08:43:19.000Z</time>
      </trkpt>
      <trkpt lat="48.0796" lon="7.04486">
        <ele>1227.71</ele>
        <time>2021-01-10T08:43:30.000Z</time>
      </trkpt>
      <trkpt lat="48.0796" lon="7.045">
        <ele>1227.22</ele>
        <time>2021-01-10T08:43:41.000Z</time>
      </trkpt>
      <trkpt lat="48.07962" lon="7.04515">
        <ele>1226.81</ele>
        <time>2021-01-10T08:43:54.000Z</time>
      </trkpt>
      <trkpt lat="48.07961" lon="7.04529">
        <ele>1226.6</ele>
        <time>2021-01-10T08:44:07.000Z</time>
      </trkpt>
      <trkpt lat="48.07963" lon="7.04542">
        <ele>1227.77</ele>
        <time>2021-01-10T08:44:20.000Z</time>
      </trkpt>
      <trkpt lat="48.07962" lon="7.04556">
        <ele>1230.24</ele>
        <time>2021-01-10T08:44:34.000Z</time>
      </trkpt>
      <trkpt lat="48.07962" lon="7.0457">
        <ele>1232.04</ele>
        <time>2021-01-10T08:44:44.000Z</time>
      </trkpt>
      <trkpt lat="48.07963" lon="7.04585">
        <ele>1234.04</ele>
        <time>2021-01-10T08:44:55.000Z</time>
      </trkpt>
      <trkpt lat="48.07967" lon="7.04598">
        <ele>1236.47</ele>
        <time>2021-01-10T08:45:07.000Z</time>
      </trkpt>
      <trkpt lat="48.07972" lon="7.0461">
        <ele>1236.64</ele>
        <time>2021-01-10T08:45:20.000Z</time>
      </trkpt>
      <trkpt lat="48.07977" lon="7.04621">
        <ele>1236.27</ele>
        <time>2021-01-10T08:45:29.000Z</time>
      </trkpt>
      <trkpt lat="48.07979" lon="7.04635">
        <ele>1234.71</ele>
        <time>2021-01-10T08:45:38.000Z</time>
      </trkpt>
      <trkpt lat="48.0798" lon="7.0465">
        <ele>1232.38</ele>
        <time>2021-01-10T08:45:47.000Z</time>
      </trkpt>
      <trkpt lat="48.07983" lon="7.04663">
        <ele>1230.85</ele>
        <time>2021-01-10T08:45:55.000Z</time>
      </trkpt>
      <trkpt lat="48.07986" lon="7.04676">
        <ele>1230.3</ele>
        <time>2021-01-10T08:46:06.000Z</time>
      </trkpt>
      <trkpt lat="48.07996" lon="7.04687">
        <ele>1231.26</ele>
        <time>2021-01-10T08:46:38.000Z</time>
      </trkpt>
      <trkpt lat="48.08" lon="7.047">
        <ele>1231.92</ele>
        <time>2021-01-10T08:46:49.000Z</time>
      </trkpt>
      <trkpt lat="48.08004" lon="7.04713">
        <ele>1231.98</ele>
        <time>2021-01-10T08:47:01.000Z</time>
      </trkpt>
      <trkpt lat="48.08009" lon="7.04727">
        <ele>1231.54</ele>
        <time>2021-01-10T08:47:11.000Z</time>
      </trkpt>
      <trkpt lat="48.08013" lon="7.04739">
        <ele>1230.82</ele>
        <time>2021-01-10T08:47:18.000Z</time>
      </trkpt>
      <trkpt lat="48.08017" lon="7.04753">
        <ele>1230.46</ele>
        <time>2021-01-10T08:47:25.000Z</time>
      </trkpt>
      <trkpt lat="48.08022" lon="7.04765">
        <ele>1229.2</ele>
        <time>2021-01-10T08:47:31.000Z</time>
      </trkpt>
      <trkpt lat="48.08026" lon="7.04776">
        <ele>1228.16</ele>
        <time>2021-01-10T08:47:37.000Z</time>
      </trkpt>
      <trkpt lat="48.08032" lon="7.04788">
        <ele>1227.25</ele>
        <time>2021-01-10T08:47:44.000Z</time>
      </trkpt>
      <trkpt lat="48.08038" lon="7.04801">
        <ele>1225.98</ele>
        <time>2021-01-10T08:47:52.000Z</time>
      </trkpt>
      <trkpt lat="48.08043" lon="7.04813">
        <ele>1225.23</ele>
        <time>2021-01-10T08:48:01.000Z</time>
      </trkpt>
      <trkpt lat="48.08048" lon="7.04825">
        <ele>1225.2</ele>
        <time>2021-01-10T08:48:09.000Z</time>
      </trkpt>
      <trkpt lat="48.08054" lon="7.04836">
        <ele>1224.55</ele>
        <time>2021-01-10T08:48:19.000Z</time>
      </trkpt>
      <trkpt lat="48.08062" lon="7.04845">
        <ele>1224.15</ele>
        <time>2021-01-10T08:48:27.000Z</time>
      </trkpt>
      <trkpt lat="48.0807" lon="7.04854">
        <ele>1225.3</ele>
        <time>2021-01-10T08:53:21.000Z</time>
      </trkpt>
      <trkpt lat="48.08074" lon="7.04866">
        <ele>1223.89</ele>
        <time>2021-01-10T08:53:52.000Z</time>
      </trkpt>
      <trkpt lat="48.08079" lon="7.04878">
        <ele>1225.84</ele>
        <time>2021-01-10T08:53:57.000Z</time>
      </trkpt>
      <trkpt lat="48.08084" lon="7.0489">
        <ele>1228.47</ele>
        <time>2021-01-10T08:54:03.000Z</time>
      </trkpt>
      <trkpt lat="48.08092" lon="7.04898">
        <ele>1226.02</ele>
        <time>2021-01-10T08:54:10.000Z</time>
      </trkpt>
      <trkpt lat="48.08099" lon="7.04908">
        <ele>1223.57</ele>
        <time>2021-01-10T08:54:17.000Z</time>
      </trkpt>
      <trkpt lat="48.08105" lon="7.04919">
        <ele>1220.81</ele>
        <time>2021-01-10T08:54:23.000Z</time>
      </trkpt>
      <trkpt lat="48.0811" lon="7.04933">
        <ele>1219.67</ele>
        <time>2021-01-10T08:54:29.000Z</time>
      </trkpt>
      <trkpt lat="48.08116" lon="7.04945">
        <ele>1218.72</ele>
        <time>2021-01-10T08:54:36.000Z</time>
      </trkpt>
      <trkpt lat="48.08122" lon="7.04955">
        <ele>1216.01</ele>
        <time>2021-01-10T08:54:46.000Z</time>
      </trkpt>
      <trkpt lat="48.08128" lon="7.04967">
        <ele>1214.37</ele>
        <time>2021-01-10T08:54:54.000Z</time>
      </trkpt>
      <trkpt lat="48.08136" lon="7.04974">
        <ele>1212.53</ele>
        <time>2021-01-10T08:55:02.000Z</time>
      </trkpt>
      <trkpt lat="48.08144" lon="7.04982">
        <ele>1209.61</ele>
        <time>2021-01-10T08:55:11.000Z</time>
      </trkpt>
      <trkpt lat="48.08151" lon="7.04991">
        <ele>1208.34</ele>
        <time>2021-01-10T08:55:28.000Z</time>
      </trkpt>
      <trkpt lat="48.08158" lon="7.05001">
        <ele>1210.51</ele>
        <time>2021-01-10T08:55:34.000Z</time>
      </trkpt>
      <trkpt lat="48.08164" lon="7.05011">
        <ele>1211.2</ele>
        <time>2021-01-10T08:55:41.000Z</time>
      </trkpt>
      <trkpt lat="48.08171" lon="7.05021">
        <ele>1212.3</ele>
        <time>2021-01-10T08:55:49.000Z</time>
      </trkpt>
      <trkpt lat="48.08177" lon="7.0503">
        <ele>1212.32</ele>
        <time>2021-01-10T08:55:58.000Z</time>
      </trkpt>
      <trkpt lat="48.08184" lon="7.0504">
        <ele>1212.43</ele>
        <time>2021-01-10T08:56:06.000Z</time>
      </trkpt>
      <trkpt lat="48.08191" lon="7.05051">
        <ele>1212.32</ele>
        <time>2021-01-10T08:56:15.000Z</time>
      </trkpt>
      <trkpt lat="48.08197" lon="7.05061">
        <ele>1213.1</ele>
        <time>2021-01-10T08:56:24.000Z</time>
      </trkpt>
      <trkpt lat="48.08204" lon="7.05072">
        <ele>1213.98</ele>
        <time>2021-01-10T08:56:36.000Z</time>
      </trkpt>
      <trkpt lat="48.08211" lon="7.05082">
        <ele>1214.09</ele>
        <time>2021-01-10T08:56:45.000Z</time>
      </trkpt>
      <trkpt lat="48.08217" lon="7.05093">
        <ele>1214.86</ele>
        <time>2021-01-10T08:56:56.000Z</time>
      </trkpt>
      <trkpt lat="48.08223" lon="7.05105">
        <ele>1216.1</ele>
        <time>2021-01-10T08:57:06.000Z</time>
      </trkpt>
      <trkpt lat="48.08229" lon="7.05115">
        <ele>1216.58</ele>
        <time>2021-01-10T08:57:17.000Z</time>
      </trkpt>
      <trkpt lat="48.08234" lon="7.05128">
        <ele>1217.58</ele>
        <time>2021-01-10T08:57:30.000Z</time>
      </trkpt>
      <trkpt lat="48.0824" lon="7.05138">
        <ele>1218.8</ele>
        <time>2021-01-10T08:57:42.000Z</time>
      </trkpt>
      <trkpt lat="48.08246" lon="7.05148">
        <ele>1219.67</ele>
        <time>2021-01-10T08:57:57.000Z</time>
      </trkpt>
      <trkpt lat="48.08251" lon="7.0516">
        <ele>1220.68</ele>
        <time>2021-01-10T08:58:07.000Z</time>
      </trkpt>
      <trkpt lat="48.08257" lon="7.05171">
        <ele>1220.66</ele>
        <time>2021-01-10T08:58:16.000Z</time>
      </trkpt>
      <trkpt lat="48.08264" lon="7.05178">
        <ele>1221.07</ele>
        <time>2021-01-10T08:58:27.000Z</time>
      </trkpt>
      <trkpt lat="48.08274" lon="7.05183">
        <ele>1223.15</ele>
        <time>2021-01-10T08:58:40.000Z</time>
      </trkpt>
      <trkpt lat="48.08283" lon="7.05179">
        <ele>1224.74</ele>
        <time>2021-01-10T08:58:52.000Z</time>
      </trkpt>
      <trkpt lat="48.08292" lon="7.05183">
        <ele>1228.34</ele>
        <time>2021-01-10T08:59:09.000Z</time>
      </trkpt>
      <trkpt lat="48.083" lon="7.05188">
        <ele>1231.87</ele>
        <time>2021-01-10T08:59:26.000Z</time>
      </trkpt>
      <trkpt lat="48.08309" lon="7.05193">
        <ele>1233.97</ele>
        <time>2021-01-10T08:59:38.000Z</time>
      </trkpt>
      <trkpt lat="48.08317" lon="7.05198">
        <ele>1236.74</ele>
        <time>2021-01-10T08:59:53.000Z</time>
      </trkpt>
      <trkpt lat="48.08326" lon="7.052">
        <ele>1238.31</ele>
        <time>2021-01-10T09:00:06.000Z</time>
      </trkpt>
      <trkpt lat="48.08335" lon="7.05207">
        <ele>1239.78</ele>
        <time>2021-01-10T09:00:20.000Z</time>
      </trkpt>
      <trkpt lat="48.08344" lon="7.0521">
        <ele>1240.33</ele>
        <time>2021-01-10T09:00:30.000Z</time>
      </trkpt>
      <trkpt lat="48.08353" lon="7.05213">
        <ele>1239.79</ele>
        <time>2021-01-10T09:00:41.000Z</time>
      </trkpt>
      <trkpt lat="48.08362" lon="7.05219">
        <ele>1239.34</ele>
        <time>2021-01-10T09:01:20.000Z</time>
      </trkpt>
      <trkpt lat="48.08371" lon="7.05223">
        <ele>1239.78</ele>
        <time>2021-01-10T09:01:30.000Z</time>
      </trkpt>
      <trkpt lat="48.0838" lon="7.05225">
        <ele>1238.59</ele>
        <time>2021-01-10T09:01:57.000Z</time>
      </trkpt>
      <trkpt lat="48.0839" lon="7.05222">
        <ele>1238.24</ele>
        <time>2021-01-10T09:02:06.000Z</time>
      </trkpt>
      <trkpt lat="48.08398" lon="7.05216">
        <ele>1236.83</ele>
        <time>2021-01-10T09:02:17.000Z</time>
      </trkpt>
      <trkpt lat="48.08407" lon="7.05212">
        <ele>1235.42</ele>
        <time>2021-01-10T09:02:26.000Z</time>
      </trkpt>
      <trkpt lat="48.08417" lon="7.0521">
        <ele>1234.57</ele>
        <time>2021-01-10T09:02:35.000Z</time>
      </trkpt>
      <trkpt lat="48.08427" lon="7.05211">
        <ele>1235.94</ele>
        <time>2021-01-10T09:02:43.000Z</time>
      </trkpt>
      <trkpt lat="48.08437" lon="7.05212">
        <ele>1236.51</ele>
        <time>2021-01-10T09:02:51.000Z</time>
      </trkpt>
      <trkpt lat="48.08447" lon="7.05211">
        <ele>1237.17</ele>
        <time>2021-01-10T09:03:00.000Z</time>
      </trkpt>
      <trkpt lat="48.08456" lon="7.0521">
        <ele>1237.1</ele>
        <time>2021-01-10T09:03:09.000Z</time>
      </trkpt>
      <trkpt lat="48.08465" lon="7.05212">
        <ele>1235.35</ele>
        <time>2021-01-10T09:03:17.000Z</time>
      </trkpt>
      <trkpt lat="48.08474" lon="7.05216">
        <ele>1233.94</ele>
        <time>2021-01-10T09:03:24.000Z</time>
      </trkpt>
      <trkpt lat="48.08484" lon="7.0522">
        <ele>1231.78</ele>
        <time>2021-01-10T09:03:29.000Z</time>
      </trkpt>
      <trkpt lat="48.08495" lon="7.05218">
        <ele>1228.03</ele>
        <time>2021-01-10T09:03:34.000Z</time>
      </trkpt>
      <trkpt lat="48.08504" lon="7.05216">
        <ele>1223.46</ele>
        <time>2021-01-10T09:03:41.000Z</time>
      </trkpt>
      <trkpt lat="48.0852" lon="7.0522">
        <ele>1219.61</ele>
        <time>2021-01-10T09:03:46.000Z</time>
      </trkpt>
      <trkpt lat="48.08547" lon="7.0522">
        <ele>1214.15</ele>
        <time>2021-01-10T09:03:51.000Z</time>
      </trkpt>
      <trkpt lat="48.08561" lon="7.05208">
        <ele>1209.6</ele>
        <time>2021-01-10T09:03:56.000Z</time>
      </trkpt>
      <trkpt lat="48.08567" lon="7.05219">
        <ele>1206.27</ele>
        <time>2021-01-10T09:04:03.000Z</time>
      </trkpt>
      <trkpt lat="48.08569" lon="7.05232">
        <ele>1203.87</ele>
        <time>2021-01-10T09:04:40.000Z</time>
      </trkpt>
      <trkpt lat="48.08575" lon="7.05245">
        <ele>1204.3</ele>
        <time>2021-01-10T09:05:08.000Z</time>
      </trkpt>
      <trkpt lat="48.0859" lon="7.0526">
        <ele>1201.78</ele>
        <time>2021-01-10T09:05:13.000Z</time>
      </trkpt>
      <trkpt lat="48.08606" lon="7.05265">
        <ele>1196.54</ele>
        <time>2021-01-10T09:05:18.000Z</time>
      </trkpt>
      <trkpt lat="48.08615" lon="7.05268">
        <ele>1189.23</ele>
        <time>2021-01-10T09:05:23.000Z</time>
      </trkpt>
      <trkpt lat="48.08626" lon="7.05276">
        <ele>1180.12</ele>
        <time>2021-01-10T09:05:28.000Z</time>
      </trkpt>
      <trkpt lat="48.08638" lon="7.05285">
        <ele>1172.84</ele>
        <time>2021-01-10T09:05:33.000Z</time>
      </trkpt>
      <trkpt lat="48.08652" lon="7.05293">
        <ele>1164.35</ele>
        <time>2021-01-10T09:05:38.000Z</time>
      </trkpt>
      <trkpt lat="48.08664" lon="7.05308">
        <ele>1158.74</ele>
        <time>2021-01-10T09:05:43.000Z</time>
      </trkpt>
      <trkpt lat="48.08674" lon="7.05328">
        <ele>1156.3</ele>
        <time>2021-01-10T09:05:48.000Z</time>
      </trkpt>
      <trkpt lat="48.08678" lon="7.05342">
        <ele>1158.57</ele>
        <time>2021-01-10T09:06:07.000Z</time>
      </trkpt>
      <trkpt lat="48.0868" lon="7.05359">
        <ele>1160.76</ele>
        <time>2021-01-10T09:06:49.000Z</time>
      </trkpt>
      <trkpt lat="48.08689" lon="7.05361">
        <ele>1170.33</ele>
        <time>2021-01-10T09:07:10.000Z</time>
      </trkpt>
      <trkpt lat="48.08699" lon="7.05361">
        <ele>1173.51</ele>
        <time>2021-01-10T09:07:18.000Z</time>
      </trkpt>
      <trkpt lat="48.08708" lon="7.05369">
        <ele>1175.08</ele>
        <time>2021-01-10T09:07:30.000Z</time>
      </trkpt>
      <trkpt lat="48.08717" lon="7.05371">
        <ele>1177.92</ele>
        <time>2021-01-10T09:07:42.000Z</time>
      </trkpt>
      <trkpt lat="48.08726" lon="7.05372">
        <ele>1179.82</ele>
        <time>2021-01-10T09:07:52.000Z</time>
      </trkpt>
      <trkpt lat="48.08734" lon="7.05379">
        <ele>1181.53</ele>
        <time>2021-01-10T09:08:01.000Z</time>
      </trkpt>
      <trkpt lat="48.08744" lon="7.05383">
        <ele>1183.08</ele>
        <time>2021-01-10T09:08:12.000Z</time>
      </trkpt>
      <trkpt lat="48.08752" lon="7.0539">
        <ele>1182.68</ele>
        <time>2021-01-10T09:10:52.000Z</time>
      </trkpt>
      <trkpt lat="48.0876" lon="7.05397">
        <ele>1183.59</ele>
        <time>2021-01-10T09:11:01.000Z</time>
      </trkpt>
      <trkpt lat="48.08768" lon="7.05405">
        <ele>1182.14</ele>
        <time>2021-01-10T09:11:10.000Z</time>
      </trkpt>
      <trkpt lat="48.08776" lon="7.05413">
        <ele>1180.21</ele>
        <time>2021-01-10T09:11:20.000Z</time>
      </trkpt>
      <trkpt lat="48.08784" lon="7.05421">
        <ele>1178.32</ele>
        <time>2021-01-10T09:11:30.000Z</time>
      </trkpt>
      <trkpt lat="48.08791" lon="7.0543">
        <ele>1177.29</ele>
        <time>2021-01-10T09:11:39.000Z</time>
      </trkpt>
      <trkpt lat="48.08798" lon="7.05438">
        <ele>1174.62</ele>
        <time>2021-01-10T09:11:49.000Z</time>
      </trkpt>
      <trkpt lat="48.08804" lon="7.05449">
        <ele>1173.07</ele>
        <time>2021-01-10T09:11:59.000Z</time>
      </trkpt>
      <trkpt lat="48.08809" lon="7.05462">
        <ele>1172.8</ele>
        <time>2021-01-10T09:12:09.000Z</time>
      </trkpt>
      <trkpt lat="48.08814" lon="7.05474">
        <ele>1172.71</ele>
        <time>2021-01-10T09:12:19.000Z</time>
      </trkpt>
      <trkpt lat="48.08816" lon="7.05488">
        <ele>1173.59</ele>
        <time>2021-01-10T09:12:28.000Z</time>
      </trkpt>
      <trkpt lat="48.0882" lon="7.05501">
        <ele>1175.85</ele>
        <time>2021-01-10T09:12:39.000Z</time>
      </trkpt>
      <trkpt lat="48.08827" lon="7.0551">
        <ele>1177.67</ele>
        <time>2021-01-10T09:12:49.000Z</time>
      </trkpt>
      <trkpt lat="48.08834" lon="7.05521">
        <ele>1177.54</ele>
        <time>2021-01-10T09:13:05.000Z</time>
      </trkpt>
      <trkpt lat="48.08835" lon="7.05535">
        <ele>1177.61</ele>
        <time>2021-01-10T09:13:16.000Z</time>
      </trkpt>
      <trkpt lat="48.08826" lon="7.05541">
        <ele>1175.46</ele>
        <time>2021-01-10T09:13:44.000Z</time>
      </trkpt>
      <trkpt lat="48.08835" lon="7.05545">
        <ele>1174.02</ele>
        <time>2021-01-10T09:13:50.000Z</time>
      </trkpt>
      <trkpt lat="48.08826" lon="7.0555">
        <ele>1184.84</ele>
        <time>2021-01-10T09:14:53.000Z</time>
      </trkpt>
      <trkpt lat="48.08822" lon="7.05563">
        <ele>1183.28</ele>
        <time>2021-01-10T09:15:04.000Z</time>
      </trkpt>
      <trkpt lat="48.08815" lon="7.05572">
        <ele>1180.29</ele>
        <time>2021-01-10T09:15:17.000Z</time>
      </trkpt>
      <trkpt lat="48.08805" lon="7.05575">
        <ele>1177.76</ele>
        <time>2021-01-10T09:15:27.000Z</time>
      </trkpt>
      <trkpt lat="48.08796" lon="7.05579">
        <ele>1176.29</ele>
        <time>2021-01-10T09:15:42.000Z</time>
      </trkpt>
      <trkpt lat="48.08789" lon="7.05588">
        <ele>1176.71</ele>
        <time>2021-01-10T09:15:55.000Z</time>
      </trkpt>
      <trkpt lat="48.08784" lon="7.056">
        <ele>1176.53</ele>
        <time>2021-01-10T09:16:11.000Z</time>
      </trkpt>
      <trkpt lat="48.08778" lon="7.0561">
        <ele>1176.71</ele>
        <time>2021-01-10T09:16:23.000Z</time>
      </trkpt>
      <trkpt lat="48.08761" lon="7.05619">
        <ele>1177.11</ele>
        <time>2021-01-10T09:16:52.000Z</time>
      </trkpt>
      <trkpt lat="48.0875" lon="7.05624">
        <ele>1180.99</ele>
        <time>2021-01-10T09:17:24.000Z</time>
      </trkpt>
      <trkpt lat="48.08759" lon="7.05628">
        <ele>1184.06</ele>
        <time>2021-01-10T09:17:33.000Z</time>
      </trkpt>
      <trkpt lat="48.08766" lon="7.05638">
        <ele>1186.72</ele>
        <time>2021-01-10T09:17:41.000Z</time>
      </trkpt>
      <trkpt lat="48.08773" lon="7.05646">
        <ele>1188.83</ele>
        <time>2021-01-10T09:17:48.000Z</time>
      </trkpt>
      <trkpt lat="48.08782" lon="7.05654">
        <ele>1190.25</ele>
        <time>2021-01-10T09:17:55.000Z</time>
      </trkpt>
      <trkpt lat="48.08793" lon="7.05658">
        <ele>1188.36</ele>
        <time>2021-01-10T09:18:14.000Z</time>
      </trkpt>
      <trkpt lat="48.08802" lon="7.05657">
        <ele>1188.34</ele>
        <time>2021-01-10T09:18:21.000Z</time>
      </trkpt>
      <trkpt lat="48.08811" lon="7.05657">
        <ele>1188.31</ele>
        <time>2021-01-10T09:18:30.000Z</time>
      </trkpt>
      <trkpt lat="48.08821" lon="7.05657">
        <ele>1187.45</ele>
        <time>2021-01-10T09:18:42.000Z</time>
      </trkpt>
      <trkpt lat="48.0883" lon="7.05663">
        <ele>1186.72</ele>
        <time>2021-01-10T09:18:51.000Z</time>
      </trkpt>
      <trkpt lat="48.08836" lon="7.05674">
        <ele>1186.25</ele>
        <time>2021-01-10T09:19:02.000Z</time>
      </trkpt>
      <trkpt lat="48.0884" lon="7.05686">
        <ele>1185.31</ele>
        <time>2021-01-10T09:19:13.000Z</time>
      </trkpt>
      <trkpt lat="48.08844" lon="7.05699">
        <ele>1184.45</ele>
        <time>2021-01-10T09:19:23.000Z</time>
      </trkpt>
      <trkpt lat="48.08847" lon="7.05713">
        <ele>1183.91</ele>
        <time>2021-01-10T09:19:39.000Z</time>
      </trkpt>
      <trkpt lat="48.08856" lon="7.0572">
        <ele>1184.02</ele>
        <time>2021-01-10T09:19:52.000Z</time>
      </trkpt>
      <trkpt lat="48.08864" lon="7.05728">
        <ele>1183.81</ele>
        <time>2021-01-10T09:20:03.000Z</time>
      </trkpt>
      <trkpt lat="48.08873" lon="7.05733">
        <ele>1183.32</ele>
        <time>2021-01-10T09:20:11.000Z</time>
      </trkpt>
      <trkpt lat="48.08881" lon="7.0574">
        <ele>1183.69</ele>
        <time>2021-01-10T09:20:20.000Z</time>
      </trkpt>
      <trkpt lat="48.08889" lon="7.05747">
        <ele>1184</ele>
        <time>2021-01-10T09:20:29.000Z</time>
      </trkpt>
      <trkpt lat="48.08898" lon="7.05752">
        <ele>1183.89</ele>
        <time>2021-01-10T09:20:40.000Z</time>
      </trkpt>
      <trkpt lat="48.08906" lon="7.05759">
        <ele>1183.54</ele>
        <time>2021-01-10T09:20:49.000Z</time>
      </trkpt>
      <trkpt lat="48.08914" lon="7.05767">
        <ele>1182.57</ele>
        <time>2021-01-10T09:21:00.000Z</time>
      </trkpt>
      <trkpt lat="48.08922" lon="7.05771">
        <ele>1182.22</ele>
        <time>2021-01-10T09:21:06.000Z</time>
      </trkpt>
      <trkpt lat="48.08932" lon="7.05775">
        <ele>1181.48</ele>
        <time>2021-01-10T09:21:13.000Z</time>
      </trkpt>
      <trkpt lat="48.08941" lon="7.05779">
        <ele>1180.18</ele>
        <time>2021-01-10T09:21:20.000Z</time>
      </trkpt>
      <trkpt lat="48.08951" lon="7.05784">
        <ele>1178.72</ele>
        <time>2021-01-10T09:21:25.000Z</time>
      </trkpt>
      <trkpt lat="48.0897" lon="7.05789">
        <ele>1176.92</ele>
        <time>2021-01-10T09:21:30.000Z</time>
      </trkpt>
      <trkpt lat="48.08988" lon="7.05794">
        <ele>1175.22</ele>
        <time>2021-01-10T09:21:35.000Z</time>
      </trkpt>
      <trkpt lat="48.09003" lon="7.05802">
        <ele>1172.12</ele>
        <time>2021-01-10T09:21:40.000Z</time>
      </trkpt>
      <trkpt lat="48.09016" lon="7.05807">
        <ele>1166.74</ele>
        <time>2021-01-10T09:21:45.000Z</time>
      </trkpt>
      <trkpt lat="48.09025" lon="7.05811">
        <ele>1158.92</ele>
        <time>2021-01-10T09:21:50.000Z</time>
      </trkpt>
      <trkpt lat="48.09034" lon="7.05815">
        <ele>1156.02</ele>
        <time>2021-01-10T09:21:55.000Z</time>
      </trkpt>
      <trkpt lat="48.09044" lon="7.0582">
        <ele>1154.96</ele>
        <time>2021-01-10T09:22:00.000Z</time>
      </trkpt>
      <trkpt lat="48.09052" lon="7.05826">
        <ele>1153.68</ele>
        <time>2021-01-10T09:22:06.000Z</time>
      </trkpt>
      <trkpt lat="48.09059" lon="7.05836">
        <ele>1155.32</ele>
        <time>2021-01-10T09:22:13.000Z</time>
      </trkpt>
      <trkpt lat="48.09067" lon="7.05844">
        <ele>1157.41</ele>
        <time>2021-01-10T09:22:22.000Z</time>
      </trkpt>
      <trkpt lat="48.09076" lon="7.05852">
        <ele>1159.87</ele>
        <time>2021-01-10T09:22:31.000Z</time>
      </trkpt>
      <trkpt lat="48.09064" lon="7.05847">
        <ele>1160.02</ele>
        <time>2021-01-10T09:22:45.000Z</time>
      </trkpt>
      <trkpt lat="48.09075" lon="7.05854">
        <ele>1159.63</ele>
        <time>2021-01-10T09:22:51.000Z</time>
      </trkpt>
      <trkpt lat="48.09083" lon="7.05865">
        <ele>1166.17</ele>
        <time>2021-01-10T09:22:58.000Z</time>
      </trkpt>
      <trkpt lat="48.09092" lon="7.05873">
        <ele>1173.3</ele>
        <time>2021-01-10T09:23:04.000Z</time>
      </trkpt>
      <trkpt lat="48.09099" lon="7.05882">
        <ele>1177.87</ele>
        <time>2021-01-10T09:23:24.000Z</time>
      </trkpt>
      <trkpt lat="48.09104" lon="7.05894">
        <ele>1176.71</ele>
        <time>2021-01-10T09:23:35.000Z</time>
      </trkpt>
      <trkpt lat="48.09113" lon="7.05895">
        <ele>1176.17</ele>
        <time>2021-01-10T09:23:49.000Z</time>
      </trkpt>
      <trkpt lat="48.09121" lon="7.05904">
        <ele>1175.57</ele>
        <time>2021-01-10T09:23:56.000Z</time>
      </trkpt>
      <trkpt lat="48.09129" lon="7.05913">
        <ele>1175.12</ele>
        <time>2021-01-10T09:24:05.000Z</time>
      </trkpt>
      <trkpt lat="48.09137" lon="7.05921">
        <ele>1175.38</ele>
        <time>2021-01-10T09:24:14.000Z</time>
      </trkpt>
      <trkpt lat="48.09145" lon="7.05926">
        <ele>1175.89</ele>
        <time>2021-01-10T09:24:22.000Z</time>
      </trkpt>
      <trkpt lat="48.09153" lon="7.05935">
        <ele>1177.08</ele>
        <time>2021-01-10T09:24:33.000Z</time>
      </trkpt>
      <trkpt lat="48.09161" lon="7.05944">
        <ele>1178.19</ele>
        <time>2021-01-10T09:24:46.000Z</time>
      </trkpt>
      <trkpt lat="48.09169" lon="7.0595">
        <ele>1178.72</ele>
        <time>2021-01-10T09:24:57.000Z</time>
      </trkpt>
      <trkpt lat="48.09178" lon="7.05957">
        <ele>1178.54</ele>
        <time>2021-01-10T09:25:09.000Z</time>
      </trkpt>
      <trkpt lat="48.09186" lon="7.05966">
        <ele>1178.62</ele>
        <time>2021-01-10T09:25:19.000Z</time>
      </trkpt>
      <trkpt lat="48.09194" lon="7.05975">
        <ele>1179.13</ele>
        <time>2021-01-10T09:25:28.000Z</time>
      </trkpt>
      <trkpt lat="48.092" lon="7.05984">
        <ele>1179.98</ele>
        <time>2021-01-10T09:25:37.000Z</time>
      </trkpt>
      <trkpt lat="48.09208" lon="7.05994">
        <ele>1181.11</ele>
        <time>2021-01-10T09:25:48.000Z</time>
      </trkpt>
      <trkpt lat="48.09216" lon="7.06004">
        <ele>1181.41</ele>
        <time>2021-01-10T09:25:57.000Z</time>
      </trkpt>
      <trkpt lat="48.09224" lon="7.0601">
        <ele>1181.32</ele>
        <time>2021-01-10T09:26:07.000Z</time>
      </trkpt>
      <trkpt lat="48.09233" lon="7.06016">
        <ele>1180.48</ele>
        <time>2021-01-10T09:26:15.000Z</time>
      </trkpt>
      <trkpt lat="48.0924" lon="7.06024">
        <ele>1179.42</ele>
        <time>2021-01-10T09:26:23.000Z</time>
      </trkpt>
      <trkpt lat="48.09245" lon="7.06036">
        <ele>1178.82</ele>
        <time>2021-01-10T09:26:33.000Z</time>
      </trkpt>
      <trkpt lat="48.09254" lon="7.0604">
        <ele>1178.26</ele>
        <time>2021-01-10T09:26:42.000Z</time>
      </trkpt>
      <trkpt lat="48.09262" lon="7.06047">
        <ele>1177.46</ele>
        <time>2021-01-10T09:26:48.000Z</time>
      </trkpt>
      <trkpt lat="48.0927" lon="7.06056">
        <ele>1175.54</ele>
        <time>2021-01-10T09:26:57.000Z</time>
      </trkpt>
      <trkpt lat="48.09276" lon="7.06067">
        <ele>1173.73</ele>
        <time>2021-01-10T09:27:06.000Z</time>
      </trkpt>
      <trkpt lat="48.09284" lon="7.06074">
        <ele>1173.08</ele>
        <time>2021-01-10T09:27:16.000Z</time>
      </trkpt>
      <trkpt lat="48.09296" lon="7.06066">
        <ele>1172.57</ele>
        <time>2021-01-10T09:28:54.000Z</time>
      </trkpt>
      <trkpt lat="48.09288" lon="7.06074">
        <ele>1169.67</ele>
        <time>2021-01-10T09:31:09.000Z</time>
      </trkpt>
      <trkpt lat="48.09296" lon="7.06083">
        <ele>1174.51</ele>
        <time>2021-01-10T09:36:27.000Z</time>
      </trkpt>
      <trkpt lat="48.09304" lon="7.0609">
        <ele>1174.45</ele>
        <time>2021-01-10T09:36:37.000Z</time>
      </trkpt>
      <trkpt lat="48.09313" lon="7.06098">
        <ele>1173.43</ele>
        <time>2021-01-10T09:36:47.000Z</time>
      </trkpt>
      <trkpt lat="48.0932" lon="7.06107">
        <ele>1173.79</ele>
        <time>2021-01-10T09:36:54.000Z</time>
      </trkpt>
      <trkpt lat="48.09328" lon="7.06115">
        <ele>1174.09</ele>
        <time>2021-01-10T09:37:02.000Z</time>
      </trkpt>
      <trkpt lat="48.09334" lon="7.06125">
        <ele>1173.72</ele>
        <time>2021-01-10T09:37:13.000Z</time>
      </trkpt>
      <trkpt lat="48.09341" lon="7.06137">
        <ele>1173.16</ele>
        <time>2021-01-10T09:37:20.000Z</time>
      </trkpt>
      <trkpt lat="48.09347" lon="7.06147">
        <ele>1172.44</ele>
        <time>2021-01-10T09:37:29.000Z</time>
      </trkpt>
      <trkpt lat="48.09354" lon="7.06157">
        <ele>1175.19</ele>
        <time>2021-01-10T09:38:11.000Z</time>
      </trkpt>
      <trkpt lat="48.0936" lon="7.06168">
        <ele>1177.29</ele>
        <time>2021-01-10T09:38:27.000Z</time>
      </trkpt>
      <trkpt lat="48.09366" lon="7.06178">
        <ele>1177.59</ele>
        <time>2021-01-10T09:38:36.000Z</time>
      </trkpt>
      <trkpt lat="48.09373" lon="7.06187">
        <ele>1177.72</ele>
        <time>2021-01-10T09:38:44.000Z</time>
      </trkpt>
      <trkpt lat="48.09379" lon="7.06196">
        <ele>1176.75</ele>
        <time>2021-01-10T09:38:53.000Z</time>
      </trkpt>
      <trkpt lat="48.09387" lon="7.06206">
        <ele>1176.42</ele>
        <time>2021-01-10T09:39:02.000Z</time>
      </trkpt>
      <trkpt lat="48.09394" lon="7.06216">
        <ele>1176.81</ele>
        <time>2021-01-10T09:39:12.000Z</time>
      </trkpt>
      <trkpt lat="48.09399" lon="7.06228">
        <ele>1177.48</ele>
        <time>2021-01-10T09:39:21.000Z</time>
      </trkpt>
      <trkpt lat="48.09406" lon="7.06238">
        <ele>1177.61</ele>
        <time>2021-01-10T09:39:30.000Z</time>
      </trkpt>
      <trkpt lat="48.09413" lon="7.06247">
        <ele>1178.38</ele>
        <time>2021-01-10T09:39:39.000Z</time>
      </trkpt>
      <trkpt lat="48.0942" lon="7.06256">
        <ele>1179.4</ele>
        <time>2021-01-10T09:39:49.000Z</time>
      </trkpt>
      <trkpt lat="48.09426" lon="7.06267">
        <ele>1180.28</ele>
        <time>2021-01-10T09:39:59.000Z</time>
      </trkpt>
      <trkpt lat="48.09434" lon="7.06276">
        <ele>1181.11</ele>
        <time>2021-01-10T09:40:12.000Z</time>
      </trkpt>
      <trkpt lat="48.09441" lon="7.06284">
        <ele>1181.12</ele>
        <time>2021-01-10T09:40:21.000Z</time>
      </trkpt>
      <trkpt lat="48.09447" lon="7.06294">
        <ele>1181.52</ele>
        <time>2021-01-10T09:40:33.000Z</time>
      </trkpt>
      <trkpt lat="48.09454" lon="7.06303">
        <ele>1182.09</ele>
        <time>2021-01-10T09:40:44.000Z</time>
      </trkpt>
      <trkpt lat="48.09461" lon="7.06313">
        <ele>1182.86</ele>
        <time>2021-01-10T09:40:56.000Z</time>
      </trkpt>
      <trkpt lat="48.09468" lon="7.06322">
        <ele>1184.16</ele>
        <time>2021-01-10T09:41:06.000Z</time>
      </trkpt>
      <trkpt lat="48.09474" lon="7.06333">
        <ele>1185.59</ele>
        <time>2021-01-10T09:41:18.000Z</time>
      </trkpt>
      <trkpt lat="48.0948" lon="7.06344">
        <ele>1186.88</ele>
        <time>2021-01-10T09:41:29.000Z</time>
      </trkpt>
      <trkpt lat="48.09485" lon="7.06356">
        <ele>1187.92</ele>
        <time>2021-01-10T09:41:40.000Z</time>
      </trkpt>
      <trkpt lat="48.0949" lon="7.06368">
        <ele>1189.28</ele>
        <time>2021-01-10T09:41:51.000Z</time>
      </trkpt>
      <trkpt lat="48.09494" lon="7.0638">
        <ele>1190.98</ele>
        <time>2021-01-10T09:42:02.000Z</time>
      </trkpt>
      <trkpt lat="48.09498" lon="7.06393">
        <ele>1191.52</ele>
        <time>2021-01-10T09:42:16.000Z</time>
      </trkpt>
      <trkpt lat="48.09502" lon="7.06406">
        <ele>1192.36</ele>
        <time>2021-01-10T09:42:29.000Z</time>
      </trkpt>
      <trkpt lat="48.09505" lon="7.06419">
        <ele>1194.29</ele>
        <time>2021-01-10T09:42:41.000Z</time>
      </trkpt>
      <trkpt lat="48.09506" lon="7.06432">
        <ele>1195.98</ele>
        <time>2021-01-10T09:42:54.000Z</time>
      </trkpt>
      <trkpt lat="48.09509" lon="7.06446">
        <ele>1197.96</ele>
        <time>2021-01-10T09:43:08.000Z</time>
      </trkpt>
      <trkpt lat="48.09511" lon="7.0646">
        <ele>1199.75</ele>
        <time>2021-01-10T09:43:20.000Z</time>
      </trkpt>
      <trkpt lat="48.09513" lon="7.06475">
        <ele>1202.15</ele>
        <time>2021-01-10T09:43:45.000Z</time>
      </trkpt>
      <trkpt lat="48.09515" lon="7.06488">
        <ele>1202.69</ele>
        <time>2021-01-10T09:43:57.000Z</time>
      </trkpt>
      <trkpt lat="48.09516" lon="7.06503">
        <ele>1203.75</ele>
        <time>2021-01-10T09:44:10.000Z</time>
      </trkpt>
      <trkpt lat="48.09517" lon="7.06516">
        <ele>1204.79</ele>
        <time>2021-01-10T09:44:21.000Z</time>
      </trkpt>
      <trkpt lat="48.09519" lon="7.0653">
        <ele>1206.36</ele>
        <time>2021-01-10T09:44:34.000Z</time>
      </trkpt>
      <trkpt lat="48.0952" lon="7.06544">
        <ele>1208.46</ele>
        <time>2021-01-10T09:44:47.000Z</time>
      </trkpt>
      <trkpt lat="48.09521" lon="7.06558">
        <ele>1211.68</ele>
        <time>2021-01-10T09:45:03.000Z</time>
      </trkpt>
      <trkpt lat="48.09519" lon="7.06572">
        <ele>1214.25</ele>
        <time>2021-01-10T09:45:17.000Z</time>
      </trkpt>
      <trkpt lat="48.09517" lon="7.06586">
        <ele>1215.98</ele>
        <time>2021-01-10T09:45:29.000Z</time>
      </trkpt>
      <trkpt lat="48.09515" lon="7.066">
        <ele>1217.39</ele>
        <time>2021-01-10T09:45:39.000Z</time>
      </trkpt>
      <trkpt lat="48.09519" lon="7.06612">
        <ele>1219.14</ele>
        <time>2021-01-10T09:46:14.000Z</time>
      </trkpt>
      <trkpt lat="48.09528" lon="7.06612">
        <ele>1219.05</ele>
        <time>2021-01-10T09:46:26.000Z</time>
      </trkpt>
      <trkpt lat="48.09537" lon="7.06609">
        <ele>1218.83</ele>
        <time>2021-01-10T09:46:36.000Z</time>
      </trkpt>
      <trkpt lat="48.09547" lon="7.06605">
        <ele>1218.84</ele>
        <time>2021-01-10T09:46:46.000Z</time>
      </trkpt>
      <trkpt lat="48.09556" lon="7.066">
        <ele>1218.72</ele>
        <time>2021-01-10T09:46:56.000Z</time>
      </trkpt>
      <trkpt lat="48.09565" lon="7.06596">
        <ele>1218.26</ele>
        <time>2021-01-10T09:47:04.000Z</time>
      </trkpt>
      <trkpt lat="48.09574" lon="7.06592">
        <ele>1218.42</ele>
        <time>2021-01-10T09:47:12.000Z</time>
      </trkpt>
      <trkpt lat="48.09583" lon="7.06588">
        <ele>1219.09</ele>
        <time>2021-01-10T09:47:20.000Z</time>
      </trkpt>
      <trkpt lat="48.09593" lon="7.06585">
        <ele>1220.69</ele>
        <time>2021-01-10T09:47:29.000Z</time>
      </trkpt>
      <trkpt lat="48.09602" lon="7.06584">
        <ele>1221.11</ele>
        <time>2021-01-10T09:47:38.000Z</time>
      </trkpt>
      <trkpt lat="48.09612" lon="7.06584">
        <ele>1220.52</ele>
        <time>2021-01-10T09:47:55.000Z</time>
      </trkpt>
      <trkpt lat="48.09621" lon="7.06582">
        <ele>1220.64</ele>
        <time>2021-01-10T09:48:03.000Z</time>
      </trkpt>
      <trkpt lat="48.0963" lon="7.06582">
        <ele>1220.51</ele>
        <time>2021-01-10T09:48:12.000Z</time>
      </trkpt>
      <trkpt lat="48.0964" lon="7.06579">
        <ele>1220.97</ele>
        <time>2021-01-10T09:48:20.000Z</time>
      </trkpt>
      <trkpt lat="48.09649" lon="7.06577">
        <ele>1221.88</ele>
        <time>2021-01-10T09:48:29.000Z</time>
      </trkpt>
      <trkpt lat="48.09659" lon="7.06577">
        <ele>1222.48</ele>
        <time>2021-01-10T09:48:42.000Z</time>
      </trkpt>
      <trkpt lat="48.09669" lon="7.06575">
        <ele>1224.57</ele>
        <time>2021-01-10T09:48:53.000Z</time>
      </trkpt>
      <trkpt lat="48.09678" lon="7.06576">
        <ele>1225.41</ele>
        <time>2021-01-10T09:49:05.000Z</time>
      </trkpt>
      <trkpt lat="48.09688" lon="7.06576">
        <ele>1225.19</ele>
        <time>2021-01-10T09:49:19.000Z</time>
      </trkpt>
      <trkpt lat="48.09698" lon="7.06572">
        <ele>1226.06</ele>
        <time>2021-01-10T09:49:31.000Z</time>
      </trkpt>
      <trkpt lat="48.09707" lon="7.0657">
        <ele>1227.56</ele>
        <time>2021-01-10T09:49:42.000Z</time>
      </trkpt>
      <trkpt lat="48.09716" lon="7.06569">
        <ele>1229.26</ele>
        <time>2021-01-10T09:49:54.000Z</time>
      </trkpt>
      <trkpt lat="48.09725" lon="7.06572">
        <ele>1231.38</ele>
        <time>2021-01-10T09:50:10.000Z</time>
      </trkpt>
      <trkpt lat="48.09731" lon="7.06562">
        <ele>1233.6</ele>
        <time>2021-01-10T09:58:54.000Z</time>
      </trkpt>
      <trkpt lat="48.09729" lon="7.06548">
        <ele>1234.74</ele>
        <time>2021-01-10T09:59:04.000Z</time>
      </trkpt>
      <trkpt lat="48.09722" lon="7.06538">
        <ele>1236.7</ele>
        <time>2021-01-10T10:01:37.000Z</time>
      </trkpt>
      <trkpt lat="48.09712" lon="7.06531">
        <ele>1238.41</ele>
        <time>2021-01-10T10:22:44.000Z</time>
      </trkpt>
      <trkpt lat="48.09698" lon="7.06522">
        <ele>1235.89</ele>
        <time>2021-01-10T10:22:49.000Z</time>
      </trkpt>
      <trkpt lat="48.09685" lon="7.06521">
        <ele>1233.51</ele>
        <time>2021-01-10T10:22:54.000Z</time>
      </trkpt>
      <trkpt lat="48.0967" lon="7.06533">
        <ele>1229.46</ele>
        <time>2021-01-10T10:22:59.000Z</time>
      </trkpt>
      <trkpt lat="48.09649" lon="7.0654">
        <ele>1225.58</ele>
        <time>2021-01-10T10:23:04.000Z</time>
      </trkpt>
      <trkpt lat="48.09628" lon="7.06557">
        <ele>1222.48</ele>
        <time>2021-01-10T10:23:09.000Z</time>
      </trkpt>
      <trkpt lat="48.0961" lon="7.06568">
        <ele>1220.73</ele>
        <time>2021-01-10T10:23:14.000Z</time>
      </trkpt>
      <trkpt lat="48.09592" lon="7.06579">
        <ele>1220.07</ele>
        <time>2021-01-10T10:23:19.000Z</time>
      </trkpt>
      <trkpt lat="48.09578" lon="7.06588">
        <ele>1218.7</ele>
        <time>2021-01-10T10:23:24.000Z</time>
      </trkpt>
      <trkpt lat="48.09572" lon="7.06598">
        <ele>1218.64</ele>
        <time>2021-01-10T10:23:29.000Z</time>
      </trkpt>
      <trkpt lat="48.09565" lon="7.06608">
        <ele>1218.01</ele>
        <time>2021-01-10T10:23:34.000Z</time>
      </trkpt>
      <trkpt lat="48.09556" lon="7.06617">
        <ele>1216.71</ele>
        <time>2021-01-10T10:24:03.000Z</time>
      </trkpt>
      <trkpt lat="48.09565" lon="7.0662">
        <ele>1214.6</ele>
        <time>2021-01-10T10:25:24.000Z</time>
      </trkpt>
      <trkpt lat="48.09556" lon="7.06623">
        <ele>1215.68</ele>
        <time>2021-01-10T10:25:34.000Z</time>
      </trkpt>
      <trkpt lat="48.09547" lon="7.0663">
        <ele>1216.65</ele>
        <time>2021-01-10T10:25:39.000Z</time>
      </trkpt>
      <trkpt lat="48.09538" lon="7.06639">
        <ele>1216.06</ele>
        <time>2021-01-10T10:25:45.000Z</time>
      </trkpt>
      <trkpt lat="48.09528" lon="7.06646">
        <ele>1215.28</ele>
        <time>2021-01-10T10:25:50.000Z</time>
      </trkpt>
      <trkpt lat="48.09519" lon="7.06651">
        <ele>1213.56</ele>
        <time>2021-01-10T10:25:56.000Z</time>
      </trkpt>
      <trkpt lat="48.0951" lon="7.06654">
        <ele>1211.05</ele>
        <time>2021-01-10T10:26:03.000Z</time>
      </trkpt>
      <trkpt lat="48.095" lon="7.06657">
        <ele>1209.61</ele>
        <time>2021-01-10T10:26:09.000Z</time>
      </trkpt>
      <trkpt lat="48.09492" lon="7.06666">
        <ele>1209.39</ele>
        <time>2021-01-10T10:27:43.000Z</time>
      </trkpt>
      <trkpt lat="48.09491" lon="7.06683">
        <ele>1208.78</ele>
        <time>2021-01-10T10:27:48.000Z</time>
      </trkpt>
      <trkpt lat="48.09488" lon="7.06708">
        <ele>1207.03</ele>
        <time>2021-01-10T10:27:53.000Z</time>
      </trkpt>
      <trkpt lat="48.09485" lon="7.06734">
        <ele>1203.7</ele>
        <time>2021-01-10T10:27:58.000Z</time>
      </trkpt>
      <trkpt lat="48.09486" lon="7.06752">
        <ele>1200.52</ele>
        <time>2021-01-10T10:28:03.000Z</time>
      </trkpt>
      <trkpt lat="48.09477" lon="7.06756">
        <ele>1197.43</ele>
        <time>2021-01-10T10:29:25.000Z</time>
      </trkpt>
      <trkpt lat="48.09466" lon="7.06758">
        <ele>1196.44</ele>
        <time>2021-01-10T10:29:30.000Z</time>
      </trkpt>
      <trkpt lat="48.09456" lon="7.06755">
        <ele>1192.86</ele>
        <time>2021-01-10T10:29:36.000Z</time>
      </trkpt>
      <trkpt lat="48.09447" lon="7.0675">
        <ele>1190.5</ele>
        <time>2021-01-10T10:29:41.000Z</time>
      </trkpt>
      <trkpt lat="48.09439" lon="7.06747">
        <ele>1188.63</ele>
        <time>2021-01-10T10:29:46.000Z</time>
      </trkpt>
      <trkpt lat="48.0943" lon="7.06759">
        <ele>1185.86</ele>
        <time>2021-01-10T10:29:51.000Z</time>
      </trkpt>
      <trkpt lat="48.09422" lon="7.06775">
        <ele>1179.87</ele>
        <time>2021-01-10T10:29:56.000Z</time>
      </trkpt>
      <trkpt lat="48.09411" lon="7.06786">
        <ele>1169.58</ele>
        <time>2021-01-10T10:30:01.000Z</time>
      </trkpt>
      <trkpt lat="48.09396" lon="7.06791">
        <ele>1163.07</ele>
        <time>2021-01-10T10:30:06.000Z</time>
      </trkpt>
      <trkpt lat="48.09386" lon="7.06784">
        <ele>1155.26</ele>
        <time>2021-01-10T10:30:12.000Z</time>
      </trkpt>
      <trkpt lat="48.09372" lon="7.06775">
        <ele>1154.59</ele>
        <time>2021-01-10T10:30:38.000Z</time>
      </trkpt>
      <trkpt lat="48.09362" lon="7.06774">
        <ele>1160.09</ele>
        <time>2021-01-10T10:31:18.000Z</time>
      </trkpt>
      <trkpt lat="48.09373" lon="7.06762">
        <ele>1165.54</ele>
        <time>2021-01-10T10:32:03.000Z</time>
      </trkpt>
      <trkpt lat="48.09361" lon="7.06772">
        <ele>1165.5</ele>
        <time>2021-01-10T10:32:08.000Z</time>
      </trkpt>
      <trkpt lat="48.09376" lon="7.06771">
        <ele>1164.76</ele>
        <time>2021-01-10T10:32:14.000Z</time>
      </trkpt>
      <trkpt lat="48.09364" lon="7.06771">
        <ele>1163.98</ele>
        <time>2021-01-10T10:32:22.000Z</time>
      </trkpt>
      <trkpt lat="48.09356" lon="7.06779">
        <ele>1164.34</ele>
        <time>2021-01-10T10:32:32.000Z</time>
      </trkpt>
      <trkpt lat="48.09327" lon="7.06778">
        <ele>1167.16</ele>
        <time>2021-01-10T10:32:37.000Z</time>
      </trkpt>
      <trkpt lat="48.09347" lon="7.06771">
        <ele>1166.92</ele>
        <time>2021-01-10T10:32:42.000Z</time>
      </trkpt>
      <trkpt lat="48.09349" lon="7.06784">
        <ele>1168.29</ele>
        <time>2021-01-10T10:32:49.000Z</time>
      </trkpt>
      <trkpt lat="48.09342" lon="7.06766">
        <ele>1170.57</ele>
        <time>2021-01-10T10:33:01.000Z</time>
      </trkpt>
      <trkpt lat="48.09332" lon="7.06768">
        <ele>1169.86</ele>
        <time>2021-01-10T10:34:16.000Z</time>
      </trkpt>
      <trkpt lat="48.09305" lon="7.06791">
        <ele>1163.18</ele>
        <time>2021-01-10T10:34:21.000Z</time>
      </trkpt>
      <trkpt lat="48.09281" lon="7.068">
        <ele>1155.05</ele>
        <time>2021-01-10T10:34:26.000Z</time>
      </trkpt>
      <trkpt lat="48.09263" lon="7.06812">
        <ele>1146.26</ele>
        <time>2021-01-10T10:34:31.000Z</time>
      </trkpt>
      <trkpt lat="48.09249" lon="7.06823">
        <ele>1138.32</ele>
        <time>2021-01-10T10:34:36.000Z</time>
      </trkpt>
      <trkpt lat="48.09238" lon="7.06839">
        <ele>1130.5</ele>
        <time>2021-01-10T10:34:41.000Z</time>
      </trkpt>
      <trkpt lat="48.09213" lon="7.06844">
        <ele>1124.48</ele>
        <time>2021-01-10T10:34:46.000Z</time>
      </trkpt>
      <trkpt lat="48.092" lon="7.06871">
        <ele>1118.1</ele>
        <time>2021-01-10T10:34:51.000Z</time>
      </trkpt>
      <trkpt lat="48.09188" lon="7.06883">
        <ele>1114.82</ele>
        <time>2021-01-10T10:35:15.000Z</time>
      </trkpt>
      <trkpt lat="48.09176" lon="7.06899">
        <ele>1111.4</ele>
        <time>2021-01-10T10:35:20.000Z</time>
      </trkpt>
      <trkpt lat="48.09168" lon="7.06906">
        <ele>1109.89</ele>
        <time>2021-01-10T10:36:28.000Z</time>
      </trkpt>
      <trkpt lat="48.0916" lon="7.06909">
        <ele>1108.49</ele>
        <time>2021-01-10T10:36:54.000Z</time>
      </trkpt>
      <trkpt lat="48.09132" lon="7.06926">
        <ele>1106.05</ele>
        <time>2021-01-10T10:36:59.000Z</time>
      </trkpt>
      <trkpt lat="48.09101" lon="7.0694">
        <ele>1100.64</ele>
        <time>2021-01-10T10:37:04.000Z</time>
      </trkpt>
      <trkpt lat="48.09075" lon="7.0695">
        <ele>1093.65</ele>
        <time>2021-01-10T10:37:09.000Z</time>
      </trkpt>
      <trkpt lat="48.09053" lon="7.06962">
        <ele>1087.69</ele>
        <time>2021-01-10T10:37:14.000Z</time>
      </trkpt>
      <trkpt lat="48.09032" lon="7.0697">
        <ele>1082.83</ele>
        <time>2021-01-10T10:37:19.000Z</time>
      </trkpt>
      <trkpt lat="48.0901" lon="7.06967">
        <ele>1078.47</ele>
        <time>2021-01-10T10:37:24.000Z</time>
      </trkpt>
      <trkpt lat="48.08988" lon="7.06955">
        <ele>1074.81</ele>
        <time>2021-01-10T10:37:29.000Z</time>
      </trkpt>
      <trkpt lat="48.08961" lon="7.06944">
        <ele>1071.39</ele>
        <time>2021-01-10T10:37:34.000Z</time>
      </trkpt>
      <trkpt lat="48.08936" lon="7.0694">
        <ele>1067.35</ele>
        <time>2021-01-10T10:37:39.000Z</time>
      </trkpt>
      <trkpt lat="48.08913" lon="7.0693">
        <ele>1062.71</ele>
        <time>2021-01-10T10:37:44.000Z</time>
      </trkpt>
      <trkpt lat="48.08887" lon="7.06928">
        <ele>1057.87</ele>
        <time>2021-01-10T10:37:49.000Z</time>
      </trkpt>
      <trkpt lat="48.08859" lon="7.06914">
        <ele>1051.74</ele>
        <time>2021-01-10T10:37:54.000Z</time>
      </trkpt>
      <trkpt lat="48.08838" lon="7.06889">
        <ele>1044.68</ele>
        <time>2021-01-10T10:37:59.000Z</time>
      </trkpt>
      <trkpt lat="48.08826" lon="7.06856">
        <ele>1037.13</ele>
        <time>2021-01-10T10:38:04.000Z</time>
      </trkpt>
      <trkpt lat="48.0882" lon="7.06825">
        <ele>1033.9</ele>
        <time>2021-01-10T10:38:09.000Z</time>
      </trkpt>
      <trkpt lat="48.08815" lon="7.06805">
        <ele>1031.82</ele>
        <time>2021-01-10T10:38:14.000Z</time>
      </trkpt>
      <trkpt lat="48.0881" lon="7.06789">
        <ele>1030.94</ele>
        <time>2021-01-10T10:38:19.000Z</time>
      </trkpt>
      <trkpt lat="48.08804" lon="7.06777">
        <ele>1032.3</ele>
        <time>2021-01-10T10:38:25.000Z</time>
      </trkpt>
      <trkpt lat="48.08796" lon="7.06768">
        <ele>1030.78</ele>
        <time>2021-01-10T10:38:54.000Z</time>
      </trkpt>
      <trkpt lat="48.08785" lon="7.06751">
        <ele>1029.14</ele>
        <time>2021-01-10T10:38:59.000Z</time>
      </trkpt>
      <trkpt lat="48.08775" lon="7.06728">
        <ele>1026.26</ele>
        <time>2021-01-10T10:39:04.000Z</time>
      </trkpt>
      <trkpt lat="48.08766" lon="7.06719">
        <ele>1024.14</ele>
        <time>2021-01-10T10:39:17.000Z</time>
      </trkpt>
      <trkpt lat="48.08758" lon="7.06709">
        <ele>1022.9</ele>
        <time>2021-01-10T10:39:22.000Z</time>
      </trkpt>
      <trkpt lat="48.08753" lon="7.06692">
        <ele>1020.11</ele>
        <time>2021-01-10T10:39:27.000Z</time>
      </trkpt>
      <trkpt lat="48.08752" lon="7.06675">
        <ele>1016.85</ele>
        <time>2021-01-10T10:39:32.000Z</time>
      </trkpt>
      <trkpt lat="48.08756" lon="7.06664">
        <ele>1013.62</ele>
        <time>2021-01-10T10:39:38.000Z</time>
      </trkpt>
      <trkpt lat="48.08768" lon="7.06647">
        <ele>1010.43</ele>
        <time>2021-01-10T10:39:43.000Z</time>
      </trkpt>
      <trkpt lat="48.08792" lon="7.0663">
        <ele>1006.9</ele>
        <time>2021-01-10T10:39:48.000Z</time>
      </trkpt>
      <trkpt lat="48.08785" lon="7.06595">
        <ele>1001.77</ele>
        <time>2021-01-10T10:39:53.000Z</time>
      </trkpt>
      <trkpt lat="48.08762" lon="7.06572">
        <ele>996.62</ele>
        <time>2021-01-10T10:39:58.000Z</time>
      </trkpt>
      <trkpt lat="48.08751" lon="7.0656">
        <ele>994.09</ele>
        <time>2021-01-10T10:40:03.000Z</time>
      </trkpt>
      <trkpt lat="48.08746" lon="7.06544">
        <ele>992.32</ele>
        <time>2021-01-10T10:40:08.000Z</time>
      </trkpt>
      <trkpt lat="48.08738" lon="7.06518">
        <ele>989.72</ele>
        <time>2021-01-10T10:40:13.000Z</time>
      </trkpt>
      <trkpt lat="48.08727" lon="7.06487">
        <ele>987.98</ele>
        <time>2021-01-10T10:40:18.000Z</time>
      </trkpt>
      <trkpt lat="48.08722" lon="7.06466">
        <ele>986.43</ele>
        <time>2021-01-10T10:40:23.000Z</time>
      </trkpt>
      <trkpt lat="48.0872" lon="7.06446">
        <ele>986.08</ele>
        <time>2021-01-10T10:40:28.000Z</time>
      </trkpt>
      <trkpt lat="48.08717" lon="7.06426">
        <ele>986.42</ele>
        <time>2021-01-10T10:40:33.000Z</time>
      </trkpt>
      <trkpt lat="48.08715" lon="7.06403">
        <ele>987.49</ele>
        <time>2021-01-10T10:42:28.000Z</time>
      </trkpt>
      <trkpt lat="48.08711" lon="7.06388">
        <ele>995.56</ele>
        <time>2021-01-10T10:46:31.000Z</time>
      </trkpt>
      <trkpt lat="48.08709" lon="7.06373">
        <ele>995.43</ele>
        <time>2021-01-10T10:46:44.000Z</time>
      </trkpt>
      <trkpt lat="48.08705" lon="7.06358">
        <ele>997.38</ele>
        <time>2021-01-10T10:46:53.000Z</time>
      </trkpt>
      <trkpt lat="48.08703" lon="7.06344">
        <ele>999.9</ele>
        <time>2021-01-10T10:47:00.000Z</time>
      </trkpt>
      <trkpt lat="48.08696" lon="7.06333">
        <ele>1001.44</ele>
        <time>2021-01-10T10:47:08.000Z</time>
      </trkpt>
      <trkpt lat="48.08693" lon="7.0632">
        <ele>1003.06</ele>
        <time>2021-01-10T10:47:17.000Z</time>
      </trkpt>
      <trkpt lat="48.08688" lon="7.06306">
        <ele>1005.21</ele>
        <time>2021-01-10T10:47:26.000Z</time>
      </trkpt>
      <trkpt lat="48.08679" lon="7.06303">
        <ele>1008.97</ele>
        <time>2021-01-10T10:47:34.000Z</time>
      </trkpt>
      <trkpt lat="48.08669" lon="7.06305">
        <ele>1010.9</ele>
        <time>2021-01-10T10:47:41.000Z</time>
      </trkpt>
      <trkpt lat="48.0866" lon="7.06314">
        <ele>1012.09</ele>
        <time>2021-01-10T10:48:00.000Z</time>
      </trkpt>
      <trkpt lat="48.08652" lon="7.06322">
        <ele>1011.25</ele>
        <time>2021-01-10T10:48:08.000Z</time>
      </trkpt>
      <trkpt lat="48.08645" lon="7.0633">
        <ele>1010.76</ele>
        <time>2021-01-10T10:48:18.000Z</time>
      </trkpt>
      <trkpt lat="48.08632" lon="7.06345">
        <ele>1009.41</ele>
        <time>2021-01-10T10:48:35.000Z</time>
      </trkpt>
      <trkpt lat="48.08626" lon="7.06357">
        <ele>1008.52</ele>
        <time>2021-01-10T10:48:42.000Z</time>
      </trkpt>
      <trkpt lat="48.08618" lon="7.06363">
        <ele>1007.82</ele>
        <time>2021-01-10T10:48:51.000Z</time>
      </trkpt>
      <trkpt lat="48.08609" lon="7.06369">
        <ele>1006.78</ele>
        <time>2021-01-10T10:48:59.000Z</time>
      </trkpt>
      <trkpt lat="48.086" lon="7.06362">
        <ele>1006.32</ele>
        <time>2021-01-10T10:49:07.000Z</time>
      </trkpt>
      <trkpt lat="48.08594" lon="7.06351">
        <ele>1005.64</ele>
        <time>2021-01-10T10:49:15.000Z</time>
      </trkpt>
      <trkpt lat="48.08594" lon="7.06336">
        <ele>1005.05</ele>
        <time>2021-01-10T10:49:21.000Z</time>
      </trkpt>
      <trkpt lat="48.08594" lon="7.06322">
        <ele>1004.99</ele>
        <time>2021-01-10T10:49:28.000Z</time>
      </trkpt>
      <trkpt lat="48.08595" lon="7.06303">
        <ele>1004.44</ele>
        <time>2021-01-10T10:49:43.000Z</time>
      </trkpt>
      <trkpt lat="48.08596" lon="7.06285">
        <ele>1003.31</ele>
        <time>2021-01-10T10:49:55.000Z</time>
      </trkpt>
      <trkpt lat="48.08596" lon="7.06267">
        <ele>1001.94</ele>
        <time>2021-01-10T10:50:08.000Z</time>
      </trkpt>
      <trkpt lat="48.08597" lon="7.06247">
        <ele>1000.24</ele>
        <time>2021-01-10T10:50:20.000Z</time>
      </trkpt>
      <trkpt lat="48.08596" lon="7.06229">
        <ele>999.09</ele>
        <time>2021-01-10T10:50:29.000Z</time>
      </trkpt>
      <trkpt lat="48.0859" lon="7.06211">
        <ele>998.11</ele>
        <time>2021-01-10T10:50:40.000Z</time>
      </trkpt>
      <trkpt lat="48.08583" lon="7.06189">
        <ele>997.31</ele>
        <time>2021-01-10T10:50:50.000Z</time>
      </trkpt>
      <trkpt lat="48.08575" lon="7.06174">
        <ele>997.39</ele>
        <time>2021-01-10T10:50:59.000Z</time>
      </trkpt>
      <trkpt lat="48.08566" lon="7.06157">
        <ele>997.24</ele>
        <time>2021-01-10T10:51:12.000Z</time>
      </trkpt>
      <trkpt lat="48.08559" lon="7.06147">
        <ele>997.89</ele>
        <time>2021-01-10T10:51:19.000Z</time>
      </trkpt>
      <trkpt lat="48.08552" lon="7.06138">
        <ele>997.61</ele>
        <time>2021-01-10T10:51:28.000Z</time>
      </trkpt>
      <trkpt lat="48.08545" lon="7.06123">
        <ele>996.89</ele>
        <time>2021-01-10T10:51:40.000Z</time>
      </trkpt>
      <trkpt lat="48.08539" lon="7.06106">
        <ele>995.74</ele>
        <time>2021-01-10T10:51:53.000Z</time>
      </trkpt>
      <trkpt lat="48.08536" lon="7.06088">
        <ele>994.61</ele>
        <time>2021-01-10T10:52:04.000Z</time>
      </trkpt>
      <trkpt lat="48.08535" lon="7.0607">
        <ele>992.81</ele>
        <time>2021-01-10T10:52:19.000Z</time>
      </trkpt>
      <trkpt lat="48.08534" lon="7.06053">
        <ele>991.99</ele>
        <time>2021-01-10T10:52:29.000Z</time>
      </trkpt>
      <trkpt lat="48.08531" lon="7.06036">
        <ele>991.44</ele>
        <time>2021-01-10T10:52:40.000Z</time>
      </trkpt>
      <trkpt lat="48.08524" lon="7.06014">
        <ele>991.69</ele>
        <time>2021-01-10T10:52:49.000Z</time>
      </trkpt>
      <trkpt lat="48.08512" lon="7.06003">
        <ele>991.81</ele>
        <time>2021-01-10T10:53:00.000Z</time>
      </trkpt>
      <trkpt lat="48.08498" lon="7.06">
        <ele>992.71</ele>
        <time>2021-01-10T10:53:11.000Z</time>
      </trkpt>
      <trkpt lat="48.08485" lon="7.06003">
        <ele>994.01</ele>
        <time>2021-01-10T10:53:24.000Z</time>
      </trkpt>
      <trkpt lat="48.08474" lon="7.06006">
        <ele>994.89</ele>
        <time>2021-01-10T10:53:36.000Z</time>
      </trkpt>
      <trkpt lat="48.08461" lon="7.06009">
        <ele>996.86</ele>
        <time>2021-01-10T10:53:45.000Z</time>
      </trkpt>
      <trkpt lat="48.08448" lon="7.06012">
        <ele>999.24</ele>
        <time>2021-01-10T10:53:56.000Z</time>
      </trkpt>
      <trkpt lat="48.08436" lon="7.06011">
        <ele>1001.19</ele>
        <time>2021-01-10T10:54:08.000Z</time>
      </trkpt>
      <trkpt lat="48.08424" lon="7.06015">
        <ele>1004.42</ele>
        <time>2021-01-10T10:54:16.000Z</time>
      </trkpt>
      <trkpt lat="48.08415" lon="7.06009">
        <ele>1008.32</ele>
        <time>2021-01-10T10:54:21.000Z</time>
      </trkpt>
      <trkpt lat="48.08405" lon="7.06007">
        <ele>1009.71</ele>
        <time>2021-01-10T10:54:32.000Z</time>
      </trkpt>
      <trkpt lat="48.08387" lon="7.06">
        <ele>1016.27</ele>
        <time>2021-01-10T10:54:37.000Z</time>
      </trkpt>
      <trkpt lat="48.08378" lon="7.05992">
        <ele>1023.96</ele>
        <time>2021-01-10T10:54:42.000Z</time>
      </trkpt>
      <trkpt lat="48.08369" lon="7.0599">
        <ele>1031.83</ele>
        <time>2021-01-10T10:54:49.000Z</time>
      </trkpt>
      <trkpt lat="48.08365" lon="7.05977">
        <ele>1033.45</ele>
        <time>2021-01-10T10:54:58.000Z</time>
      </trkpt>
      <trkpt lat="48.08362" lon="7.05964">
        <ele>1032.25</ele>
        <time>2021-01-10T10:55:06.000Z</time>
      </trkpt>
      <trkpt lat="48.08362" lon="7.0595">
        <ele>1029.91</ele>
        <time>2021-01-10T10:55:19.000Z</time>
      </trkpt>
      <trkpt lat="48.08354" lon="7.05957">
        <ele>1024.84</ele>
        <time>2021-01-10T10:55:29.000Z</time>
      </trkpt>
      <trkpt lat="48.08345" lon="7.05973">
        <ele>1018.21</ele>
        <time>2021-01-10T10:55:46.000Z</time>
      </trkpt>
      <trkpt lat="48.0834" lon="7.0599">
        <ele>1014.54</ele>
        <time>2021-01-10T10:55:56.000Z</time>
      </trkpt>
      <trkpt lat="48.08338" lon="7.06007">
        <ele>1012.14</ele>
        <time>2021-01-10T10:56:09.000Z</time>
      </trkpt>
      <trkpt lat="48.08334" lon="7.06025">
        <ele>1010.94</ele>
        <time>2021-01-10T10:56:19.000Z</time>
      </trkpt>
      <trkpt lat="48.08334" lon="7.06021">
        <ele>1011.29</ele>
        <time>2021-01-10T10:56:41.000Z</time>
      </trkpt>
    </trkseg>
  </trk>
</gpx>